Observation data for Mertzon on 05/24/2020      Previous  Date  Next       Current Mesonet Observations  Soil Data  Daily Summary Page  Observations in Plain Language
KME1 240500Z 18006KT 22/14 A2983 RMK A01 T02190141  RH  061%=      5-min Rain = 0
KME1 240501Z 19008KT 22/14 A2984 RMK A01 T02190140  RH  061%=      5-min Rain = 0
KME1 240502Z 18007KT 22/14 A2983 RMK A01 T02200140  RH  061%=      5-min Rain = 0
KME1 240503Z 18006KT 22/14 A2983 RMK A01 T02200140  RH  060%=      5-min Rain = 0
KME1 240504Z 18009KT 22/14 A2984 RMK A01 T02210138  RH  060%=      5-min Rain = 0
KME1 240505Z 17008KT 22/14 A2983 RMK A01 T02210138  RH  059%=      5-min Rain = 0
KME1 240506Z 19008KT 22/14 A2983 RMK A01 T02220139  RH  059%=      5-min Rain = 0
KME1 240507Z 18009G14KT 22/14 A2983 RMK A01 T02220135  RH  058%=      5-min Rain = 0
KME1 240508Z 19012KT 22/13 A2983 RMK A01 T02230132  RH  056%=      5-min Rain = 0
KME1 240509Z 18009KT 23/13 A2983 RMK A01 T02260132  RH  056%=      5-min Rain = 0
KME1 240510Z 19008KT 23/13 A2983 RMK A01 T02260132  RH  055%=      5-min Rain = 0
KME1 240511Z 18010KT 23/13 A2983 RMK A01 T02260132  RH  055%=      5-min Rain = 0
KME1 240512Z 18009KT 23/13 A2983 RMK A01 T02260130  RH  055%=      5-min Rain = 0
KME1 240513Z 18008KT 23/13 A2983 RMK A01 T02260128  RH  054%=      5-min Rain = 0
KME1 240514Z 18009KT 23/13 A2984 RMK A01 T02260128  RH  054%=      5-min Rain = 0
KME1 240515Z 18009KT 23/13 A2983 RMK A01 T02270127  RH  053%=      5-min Rain = 0
KME1 240516Z 17009KT 23/13 A2983 RMK A01 T02260127  RH  053%=      5-min Rain = 0
KME1 240517Z 18008KT 23/13 A2983 RMK A01 T02270126  RH  053%=      5-min Rain = 0
KME1 240518Z 17008KT 23/12 A2983 RMK A01 T02270124  RH  052%=      5-min Rain = 0
KME1 240519Z 17007KT 23/12 A2983 RMK A01 T02270124  RH  052%=      5-min Rain = 0
KME1 240520Z 17007KT 23/12 A2983 RMK A01 T02270124  RH  052%=      5-min Rain = 0
KME1 240521Z 17007KT 23/12 A2983 RMK A01 T02270124  RH  052%=      5-min Rain = 0
KME1 240522Z 17009KT 23/12 A2983 RMK A01 T02260123  RH  052%=      5-min Rain = 0
KME1 240523Z 16006KT 23/12 A2984 RMK A01 T02260123  RH  052%=      5-min Rain = 0
KME1 240524Z 17006KT 23/12 A2984 RMK A01 T02260123  RH  052%=      5-min Rain = 0
KME1 240525Z 16007KT 23/12 A2984 RMK A01 T02250123  RH  052%=      5-min Rain = 0
KME1 240526Z 17005KT 22/12 A2984 RMK A01 T02240123  RH  053%=      5-min Rain = 0
KME1 240527Z 17005KT 22/12 A2984 RMK A01 T02230122  RH  053%=      5-min Rain = 0
KME1 240528Z 17007KT 22/12 A2984 RMK A01 T02230122  RH  053%=      5-min Rain = 0
KME1 240529Z 18005KT 22/12 A2984 RMK A01 T02230122  RH  053%=      5-min Rain = 0
KME1 240530Z 17005KT 22/12 A2984 RMK A01 T02230121  RH  052%=      5-min Rain = 0
KME1 240531Z 16006KT 22/12 A2984 RMK A01 T02230121  RH  052%=      5-min Rain = 0
KME1 240532Z 17007KT 22/12 A2985 RMK A01 T02230121  RH  052%=      5-min Rain = 0
KME1 240533Z 16007KT 22/12 A2985 RMK A01 T02230120  RH  052%=      5-min Rain = 0
KME1 240534Z 17007KT 22/12 A2985 RMK A01 T02230120  RH  052%=      5-min Rain = 0
KME1 240535Z 17007KT 22/12 A2984 RMK A01 T02230119  RH  051%=      5-min Rain = 0
KME1 240536Z 17005KT 22/12 A2984 RMK A01 T02240119  RH  051%=      5-min Rain = 0
KME1 240537Z 17006KT 22/12 A2984 RMK A01 T02240120  RH  052%=      5-min Rain = 0
KME1 240538Z 18005KT 22/12 A2984 RMK A01 T02230120  RH  052%=      5-min Rain = 0
KME1 240539Z 18004KT 22/12 A2984 RMK A01 T02220119  RH  052%=      5-min Rain = 0
KME1 240540Z 17005KT 22/12 A2984 RMK A01 T02220119  RH  052%=      5-min Rain = 0
KME1 240541Z 16007KT 22/12 A2984 RMK A01 T02220119  RH  052%=      5-min Rain = 0
KME1 240542Z 17007KT 22/12 A2984 RMK A01 T02220118  RH  052%=      5-min Rain = 0
KME1 240543Z 16006KT 22/12 A2984 RMK A01 T02220119  RH  052%=      5-min Rain = 0
KME1 240544Z 17005KT 22/12 A2984 RMK A01 T02220119  RH  052%=      5-min Rain = 0
KME1 240545Z 15005KT 22/12 A2984 RMK A01 T02220119  RH  052%=      5-min Rain = 0
KME1 240546Z 16006KT 22/12 A2984 RMK A01 T02220120  RH  053%=      5-min Rain = 0
KME1 240547Z 16006KT 22/12 A2984 RMK A01 T02210119  RH  053%=      5-min Rain = 0
KME1 240548Z 15006KT 22/12 A2984 RMK A01 T02200119  RH  053%=      5-min Rain = 0
KME1 240549Z 16005KT 22/12 A2984 RMK A01 T02200119  RH  053%=      5-min Rain = 0
KME1 240550Z 16006KT 22/12 A2985 RMK A01 T02190121  RH  053%=      5-min Rain = 0
KME1 240551Z 16006KT 22/12 A2985 RMK A01 T02180120  RH  053%=      5-min Rain = 0
KME1 240552Z 16007KT 22/12 A2984 RMK A01 T02180118  RH  053%=      5-min Rain = 0
KME1 240553Z 16007KT 22/12 A2984 RMK A01 T02190118  RH  053%=      5-min Rain = 0
KME1 240554Z 16006KT 22/12 A2984 RMK A01 T02190119  RH  053%=      5-min Rain = 0
KME1 240555Z 16006KT 22/12 A2984 RMK A01 T02190120  RH  053%=      5-min Rain = 0
KME1 240556Z 17007KT 22/12 A2985 RMK A01 T02180120  RH  054%=      5-min Rain = 0
KME1 240557Z 17006KT 22/12 A2985 RMK A01 T02170120  RH  054%=      5-min Rain = 0
KME1 240558Z 17006KT 22/12 A2985 RMK A01 T02160120  RH  054%=      5-min Rain = 0
KME1 240559Z 17007KT 22/12 A2985 RMK A01 T02160120  RH  054%=      5-min Rain = 0
KME1 240600Z 17008KT 22/12 A2985 RMK A01 T02160119  RH  054%=      5-min Rain = 0
KME1 240601Z 17007KT 22/12 A2985 RMK A01 T02170119  RH  054%=      5-min Rain = 0
KME1 240602Z 18008KT 22/12 A2985 RMK A01 T02170119  RH  054%=      5-min Rain = 0
KME1 240603Z 17008KT 22/12 A2985 RMK A01 T02170119  RH  054%=      5-min Rain = 0
KME1 240604Z 18007KT 22/12 A2985 RMK A01 T02170119  RH  054%=      5-min Rain = 0
KME1 240605Z 18007KT 22/12 A2985 RMK A01 T02170119  RH  054%=      5-min Rain = 0
KME1 240606Z 18006KT 22/12 A2984 RMK A01 T02170120  RH  054%=      5-min Rain = 0
KME1 240607Z 18006KT 22/12 A2985 RMK A01 T02170120  RH  054%=      5-min Rain = 0
KME1 240608Z 16007KT 22/12 A2985 RMK A01 T02150120  RH  055%=      5-min Rain = 0
KME1 240609Z 17008KT 22/12 A2985 RMK A01 T02150120  RH  055%=      5-min Rain = 0
KME1 240610Z 17008KT 21/12 A2985 RMK A01 T02140120  RH  055%=      5-min Rain = 0
KME1 240611Z 17007G12KT 22/12 A2985 RMK A01 T02150121  RH  055%=      5-min Rain = 0
KME1 240612Z 16008KT 21/12 A2986 RMK A01 T02140121  RH  055%=      5-min Rain = 0
KME1 240613Z 17006KT 21/12 A2986 RMK A01 T02140121  RH  055%=      5-min Rain = 0
KME1 240614Z 16007KT 21/12 A2986 RMK A01 T02140121  RH  055%=      5-min Rain = 0
KME1 240615Z 16007KT 21/12 A2986 RMK A01 T02130121  RH  055%=      5-min Rain = 0
KME1 240616Z 16007KT 21/12 A2986 RMK A01 T02140121  RH  055%=      5-min Rain = 0
KME1 240617Z 16007KT 21/12 A2987 RMK A01 T02130121  RH  055%=      5-min Rain = 0
KME1 240618Z 15004KT 21/12 A2987 RMK A01 T02140121  RH  055%=      5-min Rain = 0
KME1 240619Z 15004KT 21/12 A2987 RMK A01 T02130122  RH  056%=      5-min Rain = 0
KME1 240620Z 14005KT 21/12 A2987 RMK A01 T02130121  RH  056%=      5-min Rain = 0
KME1 240621Z 13004KT 21/12 A2987 RMK A01 T02130121  RH  056%=      5-min Rain = 0
KME1 240622Z 11005KT 21/12 A2987 RMK A01 T02130120  RH  056%=      5-min Rain = 0
KME1 240623Z 11004KT 21/12 A2987 RMK A01 T02120121  RH  056%=      5-min Rain = 0
KME1 240624Z 12005KT 21/12 A2988 RMK A01 T02120120  RH  056%=      5-min Rain = 0
KME1 240625Z 11005KT 21/12 A2988 RMK A01 T02120120  RH  056%=      5-min Rain = 0
KME1 240626Z 10005KT 21/12 A2988 RMK A01 T02130120  RH  055%=      5-min Rain = 0
KME1 240627Z 10004KT 21/12 A2988 RMK A01 T02130120  RH  055%=      5-min Rain = 0
KME1 240628Z 10004KT 21/12 A2988 RMK A01 T02130120  RH  055%=      5-min Rain = 0
KME1 240629Z 07005KT 21/12 A2988 RMK A01 T02120120  RH  056%=      5-min Rain = 0
KME1 240630Z 06006KT 21/12 A2988 RMK A01 T02120121  RH  056%=      5-min Rain = 0
KME1 240631Z 07004KT 21/12 A2988 RMK A01 T02100121  RH  057%=      5-min Rain = 0
KME1 240632Z 06005KT 21/12 A2988 RMK A01 T02100121  RH  057%=      5-min Rain = 0
KME1 240633Z 06005KT 21/12 A2988 RMK A01 T02090121  RH  057%=      5-min Rain = 0
KME1 240634Z 06005KT 21/12 A2988 RMK A01 T02070121  RH  058%=      5-min Rain = 0
KME1 240635Z 06006KT 21/12 A2988 RMK A01 T02060122  RH  058%=      5-min Rain = 0
KME1 240636Z 06006KT 21/12 A2988 RMK A01 T02050122  RH  059%=      5-min Rain = 0
KME1 240637Z 06005KT 20/12 A2988 RMK A01 T02040122  RH  059%=      5-min Rain = 0
KME1 240638Z 07005KT 20/12 A2988 RMK A01 T02030121  RH  059%=      5-min Rain = 0
KME1 240639Z 08005KT 20/12 A2988 RMK A01 T02040121  RH  059%=      5-min Rain = 0
KME1 240640Z 07004KT 21/12 A2988 RMK A01 T02050121  RH  059%=      5-min Rain = 0
KME1 240641Z 08003KT 21/12 A2988 RMK A01 T02050121  RH  059%=      5-min Rain = 0
KME1 240642Z 10003KT 20/12 A2988 RMK A01 T02040121  RH  059%=      5-min Rain = 0
KME1 240643Z 08004KT 20/12 A2988 RMK A01 T02030121  RH  059%=      5-min Rain = 0
KME1 240644Z 12003KT 20/12 A2988 RMK A01 T02020121  RH  060%=      5-min Rain = 0
KME1 240645Z 12002KT 20/12 A2988 RMK A01 T02020122  RH  060%=      5-min Rain = 0
KME1 240646Z 12003KT 20/12 A2988 RMK A01 T02000122  RH  061%=      5-min Rain = 0
KME1 240647Z 13003KT 20/12 A2988 RMK A01 T02000122  RH  061%=      5-min Rain = 0
KME1 240648Z 13003KT 20/12 A2987 RMK A01 T02000122  RH  061%=      5-min Rain = 0
KME1 240649Z 14003KT 20/12 A2987 RMK A01 T02000122  RH  061%=      5-min Rain = 0
KME1 240650Z 15003KT 20/12 A2987 RMK A01 T02000121  RH  060%=      5-min Rain = 0
KME1 240651Z 16004KT 20/12 A2987 RMK A01 T02000121  RH  060%=      5-min Rain = 0
KME1 240652Z 17004KT 20/12 A2987 RMK A01 T02000121  RH  060%=      5-min Rain = 0
KME1 240653Z 17004KT 20/12 A2987 RMK A01 T02000122  RH  060%=      5-min Rain = 0
KME1 240654Z 17005KT 20/12 A2987 RMK A01 T02000122  RH  061%=      5-min Rain = 0
KME1 240655Z 17004KT 20/12 A2987 RMK A01 T02000122  RH  061%=      5-min Rain = 0
KME1 240656Z 18004KT 20/12 A2987 RMK A01 T01990122  RH  061%=      5-min Rain = 0
KME1 240657Z 17004KT 20/12 A2987 RMK A01 T01990122  RH  061%=      5-min Rain = 0
KME1 240658Z 18004KT 20/12 A2987 RMK A01 T01990121  RH  061%=      5-min Rain = 0
KME1 240659Z 17004KT 20/12 A2987 RMK A01 T01990121  RH  061%=      5-min Rain = 0
KME1 240700Z 18004KT 20/12 A2987 RMK A01 T02000121  RH  061%=      5-min Rain = 0
KME1 240701Z 17004KT 20/12 A2987 RMK A01 T01990121  RH  061%=      5-min Rain = 0
KME1 240702Z 18003KT 20/12 A2987 RMK A01 T02000120  RH  060%=      5-min Rain = 0
KME1 240703Z 19003KT 20/12 A2987 RMK A01 T02000120  RH  060%=      5-min Rain = 0
KME1 240704Z 19003KT 20/12 A2987 RMK A01 T02000120  RH  060%=      5-min Rain = 0
KME1 240705Z 18003KT 20/12 A2987 RMK A01 T02000120  RH  060%=      5-min Rain = 0
KME1 240706Z 19002KT 20/12 A2987 RMK A01 T02000120  RH  060%=      5-min Rain = 0
KME1 240707Z 20002KT 20/12 A2987 RMK A01 T02000120  RH  060%=      5-min Rain = 0
KME1 240708Z 18001KT 20/12 A2987 RMK A01 T02000121  RH  060%=      5-min Rain = 0
KME1 240709Z 14000KT 20/12 A2987 RMK A01 T01990121  RH  061%=      5-min Rain = 0
KME1 240710Z 00000KT 20/12 A2987 RMK A01 T01980122  RH  061%=      5-min Rain = 0
KME1 240711Z 04001KT 20/12 A2987 RMK A01 T01960122  RH  062%=      5-min Rain = 0
KME1 240712Z 03002KT 19/12 A2987 RMK A01 T01930122  RH  064%=      5-min Rain = 0
KME1 240713Z 03002KT 19/12 A2987 RMK A01 T01900124  RH  065%=      5-min Rain = 0
KME1 240714Z 03002KT 19/12 A2987 RMK A01 T01870123  RH  067%=      5-min Rain = 0
KME1 240715Z 03003KT 18/12 A2987 RMK A01 T01840124  RH  068%=      5-min Rain = 0
KME1 240716Z 02003KT 18/12 A2987 RMK A01 T01830124  RH  068%=      5-min Rain = 0
KME1 240717Z 02002KT 18/12 A2987 RMK A01 T01820124  RH  069%=      5-min Rain = 0
KME1 240718Z 02002KT 18/12 A2988 RMK A01 T01820124  RH  069%=      5-min Rain = 0
KME1 240719Z 02002KT 18/13 A2988 RMK A01 T01820125  RH  069%=      5-min Rain = 0
KME1 240720Z 02001KT 18/12 A2987 RMK A01 T01820124  RH  069%=      5-min Rain = 0
KME1 240721Z 02001KT 18/13 A2987 RMK A01 T01820125  RH  069%=      5-min Rain = 0
KME1 240722Z 03002KT 18/13 A2987 RMK A01 T01820126  RH  070%=      5-min Rain = 0
KME1 240723Z 03001KT 18/13 A2987 RMK A01 T01820127  RH  071%=      5-min Rain = 0
KME1 240724Z 04001KT 18/13 A2987 RMK A01 T01810126  RH  070%=      5-min Rain = 0
KME1 240725Z 05001KT 18/12 A2987 RMK A01 T01810124  RH  069%=      5-min Rain = 0
KME1 240726Z 06001KT 18/13 A2987 RMK A01 T01820128  RH  071%=      5-min Rain = 0
KME1 240727Z 09001KT 18/13 A2987 RMK A01 T01810128  RH  071%=      5-min Rain = 0
KME1 240728Z 11001KT 18/13 A2987 RMK A01 T01810126  RH  070%=      5-min Rain = 0
KME1 240729Z 14001KT 18/12 A2987 RMK A01 T01810124  RH  070%=      5-min Rain = 0
KME1 240730Z 13001KT 18/13 A2987 RMK A01 T01810125  RH  070%=      5-min Rain = 0
KME1 240731Z 12001KT 18/12 A2987 RMK A01 T01800123  RH  069%=      5-min Rain = 0
KME1 240732Z 13002KT 18/13 A2987 RMK A01 T01810126  RH  070%=      5-min Rain = 0
KME1 240733Z 14002KT 18/13 A2987 RMK A01 T01810127  RH  071%=      5-min Rain = 0
KME1 240734Z 16003KT 18/12 A2987 RMK A01 T01800123  RH  069%=      5-min Rain = 0
KME1 240735Z 17004KT 18/12 A2987 RMK A01 T01820121  RH  068%=      5-min Rain = 0
KME1 240736Z 15002KT 18/12 A2987 RMK A01 T01830121  RH  067%=      5-min Rain = 0
KME1 240737Z 15003KT 18/12 A2986 RMK A01 T01840124  RH  068%=      5-min Rain = 0
KME1 240738Z 16003KT 18/12 A2986 RMK A01 T01840124  RH  068%=      5-min Rain = 0
KME1 240739Z 18003KT 18/12 A2987 RMK A01 T01830124  RH  068%=      5-min Rain = 0
KME1 240740Z 17003KT 18/12 A2987 RMK A01 T01820124  RH  069%=      5-min Rain = 0
KME1 240741Z 16002KT 18/12 A2987 RMK A01 T01800124  RH  070%=      5-min Rain = 0
KME1 240742Z 15002KT 18/12 A2986 RMK A01 T01780124  RH  071%=      5-min Rain = 0
KME1 240743Z 16002KT 18/13 A2986 RMK A01 T01780125  RH  071%=      5-min Rain = 0
KME1 240744Z 18003KT 18/13 A2987 RMK A01 T01770126  RH  072%=      5-min Rain = 0
KME1 240745Z 18003KT 18/13 A2987 RMK A01 T01760125  RH  072%=      5-min Rain = 0
KME1 240746Z 16003KT 18/12 A2987 RMK A01 T01760124  RH  072%=      5-min Rain = 0
KME1 240747Z 12002KT 18/12 A2986 RMK A01 T01750124  RH  072%=      5-min Rain = 0
KME1 240748Z 10002KT 17/13 A2986 RMK A01 T01740125  RH  073%=      5-min Rain = 0
KME1 240749Z 10002KT 17/13 A2986 RMK A01 T01720126  RH  074%=      5-min Rain = 0
KME1 240750Z 10002KT 17/13 A2986 RMK A01 T01690127  RH  076%=      5-min Rain = 0
KME1 240751Z 09003KT 17/13 A2986 RMK A01 T01660126  RH  077%=      5-min Rain = 0
KME1 240752Z 08003KT 17/13 A2986 RMK A01 T01650127  RH  078%=      5-min Rain = 0
KME1 240753Z 08003KT 16/13 A2986 RMK A01 T01640127  RH  079%=      5-min Rain = 0
KME1 240754Z 08003KT 16/13 A2986 RMK A01 T01640127  RH  079%=      5-min Rain = 0
KME1 240755Z 07003KT 16/13 A2986 RMK A01 T01640126  RH  078%=      5-min Rain = 0
KME1 240756Z 07003KT 16/13 A2986 RMK A01 T01640126  RH  078%=      5-min Rain = 0
KME1 240757Z 06004KT 17/13 A2986 RMK A01 T01650127  RH  078%=      5-min Rain = 0
KME1 240758Z 07004KT 16/13 A2986 RMK A01 T01640127  RH  078%=      5-min Rain = 0
KME1 240759Z 08002KT 16/13 A2987 RMK A01 T01640127  RH  079%=      5-min Rain = 0
KME1 240800Z 09001KT 16/13 A2987 RMK A01 T01630127  RH  079%=      5-min Rain = 0
KME1 240801Z 06002KT 16/13 A2986 RMK A01 T01630126  RH  079%=      5-min Rain = 0
KME1 240802Z 07003KT 16/13 A2986 RMK A01 T01630125  RH  078%=      5-min Rain = 0
KME1 240803Z 08002KT 16/13 A2987 RMK A01 T01640125  RH  078%=      5-min Rain = 0
KME1 240804Z 10002KT 16/13 A2987 RMK A01 T01640125  RH  078%=      5-min Rain = 0
KME1 240805Z 12002KT 16/12 A2987 RMK A01 T01640124  RH  078%=      5-min Rain = 0
KME1 240806Z 10002KT 16/12 A2986 RMK A01 T01640124  RH  077%=      5-min Rain = 0
KME1 240807Z 09003KT 16/12 A2986 RMK A01 T01640124  RH  077%=      5-min Rain = 0
KME1 240808Z 10003KT 17/12 A2986 RMK A01 T01650124  RH  077%=      5-min Rain = 0
KME1 240809Z 12002KT 17/12 A2986 RMK A01 T01650124  RH  077%=      5-min Rain = 0
KME1 240810Z 14003KT 17/12 A2986 RMK A01 T01650124  RH  076%=      5-min Rain = 0
KME1 240811Z 15003KT 17/12 A2986 RMK A01 T01660123  RH  076%=      5-min Rain = 0
KME1 240812Z 17003KT 17/12 A2986 RMK A01 T01680123  RH  075%=      5-min Rain = 0
KME1 240813Z 17003KT 17/12 A2986 RMK A01 T01690124  RH  075%=      5-min Rain = 0
KME1 240814Z 18003KT 17/12 A2986 RMK A01 T01690124  RH  075%=      5-min Rain = 0
KME1 240815Z 17004KT 17/12 A2986 RMK A01 T01690123  RH  074%=      5-min Rain = 0
KME1 240816Z 17005KT 17/12 A2986 RMK A01 T01690123  RH  074%=      5-min Rain = 0
KME1 240817Z 18005KT 17/12 A2986 RMK A01 T01690123  RH  074%=      5-min Rain = 0
KME1 240818Z 18004KT 17/12 A2986 RMK A01 T01690123  RH  074%=      5-min Rain = 0
KME1 240819Z 19003KT 17/12 A2985 RMK A01 T01690123  RH  075%=      5-min Rain = 0
KME1 240820Z 18004KT 17/12 A2985 RMK A01 T01670124  RH  076%=      5-min Rain = 0
KME1 240821Z 17004KT 17/12 A2985 RMK A01 T01650124  RH  077%=      5-min Rain = 0
KME1 240822Z 16003KT 16/13 A2985 RMK A01 T01640125  RH  078%=      5-min Rain = 0
KME1 240823Z 16003KT 16/13 A2985 RMK A01 T01620125  RH  079%=      5-min Rain = 0
KME1 240824Z 16003KT 16/13 A2985 RMK A01 T01610125  RH  079%=      5-min Rain = 0
KME1 240825Z 16003KT 16/13 A2985 RMK A01 T01610125  RH  079%=      5-min Rain = 0
KME1 240826Z 15003KT 16/13 A2985 RMK A01 T01610126  RH  080%=      5-min Rain = 0
KME1 240827Z 14003KT 16/13 A2985 RMK A01 T01600126  RH  080%=      5-min Rain = 0
KME1 240828Z 13003KT 16/13 A2985 RMK A01 T01600125  RH  080%=      5-min Rain = 0
KME1 240829Z 12003KT 16/13 A2985 RMK A01 T01600125  RH  080%=      5-min Rain = 0
KME1 240830Z 11002KT 16/13 A2985 RMK A01 T01590125  RH  080%=      5-min Rain = 0
KME1 240831Z 08002KT 16/13 A2985 RMK A01 T01590126  RH  081%=      5-min Rain = 0
KME1 240832Z 07003KT 16/13 A2985 RMK A01 T01570125  RH  082%=      5-min Rain = 0
KME1 240833Z 06004KT 16/13 A2985 RMK A01 T01550125  RH  082%=      5-min Rain = 0
KME1 240834Z 08004KT 15/12 A2985 RMK A01 T01540124  RH  083%=      5-min Rain = 0
KME1 240835Z 08003KT 15/12 A2985 RMK A01 T01530124  RH  083%=      5-min Rain = 0
KME1 240836Z 07003KT 15/13 A2985 RMK A01 T01530125  RH  083%=      5-min Rain = 0
KME1 240837Z 06003KT 15/13 A2985 RMK A01 T01530125  RH  084%=      5-min Rain = 0
KME1 240838Z 07004KT 15/13 A2985 RMK A01 T01530126  RH  084%=      5-min Rain = 0
KME1 240839Z 07004KT 15/13 A2985 RMK A01 T01530126  RH  084%=      5-min Rain = 0
KME1 240840Z 07003KT 15/13 A2985 RMK A01 T01520125  RH  084%=      5-min Rain = 0
KME1 240841Z 06003KT 15/13 A2985 RMK A01 T01520125  RH  084%=      5-min Rain = 0
KME1 240842Z 05002KT 15/13 A2985 RMK A01 T01520125  RH  084%=      5-min Rain = 0
KME1 240843Z 06001KT 15/13 A2985 RMK A01 T01520125  RH  084%=      5-min Rain = 0
KME1 240844Z 06001KT 15/13 A2985 RMK A01 T01520126  RH  084%=      5-min Rain = 0
KME1 240845Z 00000KT 15/13 A2985 RMK A01 T01530128  RH  085%=      5-min Rain = 0
KME1 240846Z 00000KT 15/13 A2986 RMK A01 T01530127  RH  084%=      5-min Rain = 0
KME1 240847Z 27001KT 15/13 A2985 RMK A01 T01530126  RH  084%=      5-min Rain = 0
KME1 240848Z 25001KT 15/13 A2985 RMK A01 T01540126  RH  084%=      5-min Rain = 0
KME1 240849Z 24001KT 15/13 A2985 RMK A01 T01540126  RH  083%=      5-min Rain = 0
KME1 240850Z 00000KT 16/13 A2985 RMK A01 T01550126  RH  083%=      5-min Rain = 0
KME1 240851Z 20000KT 16/13 A2985 RMK A01 T01550127  RH  083%=      5-min Rain = 0
KME1 240852Z 18001KT 16/13 A2985 RMK A01 T01550127  RH  083%=      5-min Rain = 0
KME1 240853Z 20001KT 16/13 A2985 RMK A01 T01550126  RH  083%=      5-min Rain = 0
KME1 240854Z 16001KT 16/13 A2985 RMK A01 T01560127  RH  083%=      5-min Rain = 0
KME1 240855Z 17002KT 16/13 A2985 RMK A01 T01560125  RH  082%=      5-min Rain = 0
KME1 240856Z 19002KT 16/12 A2985 RMK A01 T01570123  RH  080%=      5-min Rain = 0
KME1 240857Z 17002KT 16/12 A2985 RMK A01 T01590124  RH  080%=      5-min Rain = 0
KME1 240858Z 15002KT 16/12 A2985 RMK A01 T01580124  RH  080%=      5-min Rain = 0
KME1 240859Z 15003KT 16/12 A2985 RMK A01 T01580124  RH  080%=      5-min Rain = 0
KME1 240900Z 17002KT 16/12 A2985 RMK A01 T01580124  RH  080%=      5-min Rain = 0
KME1 240901Z 17002KT 16/12 A2985 RMK A01 T01580123  RH  080%=      5-min Rain = 0
KME1 240902Z 18002KT 16/12 A2985 RMK A01 T01580122  RH  079%=      5-min Rain = 0
KME1 240903Z 19003KT 16/12 A2985 RMK A01 T01590121  RH  078%=      5-min Rain = 0
KME1 240904Z 22003KT 16/12 A2985 RMK A01 T01600122  RH  078%=      5-min Rain = 0
KME1 240905Z 22003KT 16/12 A2985 RMK A01 T01600124  RH  079%=      5-min Rain = 0
KME1 240906Z 21003KT 16/13 A2985 RMK A01 T01590125  RH  080%=      5-min Rain = 0
KME1 240907Z 21003KT 16/12 A2985 RMK A01 T01580124  RH  080%=      5-min Rain = 0
KME1 240908Z 21004KT 16/12 A2985 RMK A01 T01570124  RH  080%=      5-min Rain = 0
KME1 240909Z 22004KT 16/12 A2985 RMK A01 T01580124  RH  080%=      5-min Rain = 0
KME1 240910Z 22004KT 16/12 A2985 RMK A01 T01570123  RH  080%=      5-min Rain = 0
KME1 240911Z 23005KT 16/12 A2985 RMK A01 T01580124  RH  080%=      5-min Rain = 0
KME1 240912Z 24005KT 16/12 A2985 RMK A01 T01580124  RH  080%=      5-min Rain = 0
KME1 240913Z 24004KT 16/12 A2985 RMK A01 T01580123  RH  080%=      5-min Rain = 0
KME1 240914Z 24005KT 16/12 A2985 RMK A01 T01590123  RH  079%=      5-min Rain = 0
KME1 240915Z 23004KT 16/12 A2986 RMK A01 T01590123  RH  079%=      5-min Rain = 0
KME1 240916Z 24004KT 16/12 A2986 RMK A01 T01590124  RH  079%=      5-min Rain = 0
KME1 240917Z 24004KT 16/12 A2986 RMK A01 T01590123  RH  079%=      5-min Rain = 0
KME1 240918Z 24004KT 16/12 A2986 RMK A01 T01590123  RH  079%=      5-min Rain = 0
KME1 240919Z 25003KT 16/12 A2986 RMK A01 T01590124  RH  079%=      5-min Rain = 0
KME1 240920Z 25003KT 16/12 A2986 RMK A01 T01590124  RH  079%=      5-min Rain = 0
KME1 240921Z 25003KT 16/12 A2986 RMK A01 T01590124  RH  080%=      5-min Rain = 0
KME1 240922Z 25002KT 16/12 A2986 RMK A01 T01590124  RH  080%=      5-min Rain = 0
KME1 240923Z 26002KT 16/12 A2986 RMK A01 T01560124  RH  081%=      5-min Rain = 0
KME1 240924Z 28001KT 15/12 A2986 RMK A01 T01540124  RH  082%=      5-min Rain = 0
KME1 240925Z 28001KT 15/12 A2986 RMK A01 T01530124  RH  083%=      5-min Rain = 0
KME1 240926Z 29001KT 15/13 A2986 RMK A01 T01530125  RH  083%=      5-min Rain = 0
KME1 240927Z 34000KT 15/13 A2986 RMK A01 T01520126  RH  084%=      5-min Rain = 0
KME1 240928Z 32001KT 15/13 A2986 RMK A01 T01520126  RH  085%=      5-min Rain = 0
KME1 240929Z 31001KT 15/13 A2986 RMK A01 T01520126  RH  085%=      5-min Rain = 0
KME1 240930Z 31001KT 15/13 A2986 RMK A01 T01510126  RH  085%=      5-min Rain = 0
KME1 240931Z 36001KT 15/13 A2986 RMK A01 T01480126  RH  086%=      5-min Rain = 0
KME1 240932Z 00002KT 15/13 A2986 RMK A01 T01460127  RH  089%=      5-min Rain = 0
KME1 240933Z 00003KT 14/13 A2986 RMK A01 T01440131  RH  091%=      5-min Rain = 0
KME1 240934Z 36002KT 14/13 A2986 RMK A01 T01440134  RH  094%=      5-min Rain = 0
KME1 240935Z 35002KT 14/14 A2986 RMK A01 T01430136  RH  095%=      5-min Rain = 0
KME1 240936Z 34003KT 14/14 A2986 RMK A01 T01430136  RH  096%=      5-min Rain = 0
KME1 240937Z 33003KT 14/14 A2985 RMK A01 T01430136  RH  096%=      5-min Rain = 0
KME1 240938Z 32003KT 14/14 A2985 RMK A01 T01430136  RH  096%=      5-min Rain = 0
KME1 240939Z 31003KT 14/14 A2986 RMK A01 T01430137  RH  096%=      5-min Rain = 0
KME1 240940Z 30003KT 14/14 A2986 RMK A01 T01430138  RH  097%=      5-min Rain = 0
KME1 240941Z 30002KT 14/14 A2985 RMK A01 T01430138  RH  097%=      5-min Rain = 0
KME1 240942Z 30003KT 14/14 A2985 RMK A01 T01440138  RH  097%=      5-min Rain = 0
KME1 240943Z 28003KT 14/14 A2986 RMK A01 T01440138  RH  096%=      5-min Rain = 0
KME1 240944Z 28002KT 15/14 A2986 RMK A01 T01450138  RH  096%=      5-min Rain = 0
KME1 240945Z 26002KT 15/14 A2986 RMK A01 T01450137  RH  095%=      5-min Rain = 0
KME1 240946Z 26002KT 15/14 A2986 RMK A01 T01450138  RH  096%=      5-min Rain = 0
KME1 240947Z 25002KT 15/14 A2986 RMK A01 T01450138  RH  096%=      5-min Rain = 0
KME1 240948Z 24002KT 15/14 A2986 RMK A01 T01450137  RH  095%=      5-min Rain = 0
KME1 240949Z 22002KT 15/14 A2986 RMK A01 T01450137  RH  095%=      5-min Rain = 0
KME1 240950Z 21003KT 14/14 A2986 RMK A01 T01440137  RH  095%=      5-min Rain = 0
KME1 240951Z 20003KT 14/14 A2986 RMK A01 T01440137  RH  096%=      5-min Rain = 0
KME1 240952Z 20003KT 14/14 A2986 RMK A01 T01430138  RH  097%=      5-min Rain = 0
KME1 240953Z 20002KT 14/14 A2986 RMK A01 T01430138  RH  097%=      5-min Rain = 0
KME1 240954Z 20002KT 14/14 A2986 RMK A01 T01430138  RH  097%=      5-min Rain = 0
KME1 240955Z 23001KT 14/14 A2986 RMK A01 T01430138  RH  097%=      5-min Rain = 0
KME1 240956Z 25002KT 14/14 A2986 RMK A01 T01430138  RH  097%=      5-min Rain = 0
KME1 240957Z 26002KT 14/14 A2986 RMK A01 T01420138  RH  097%=      5-min Rain = 0
KME1 240958Z 26002KT 14/14 A2986 RMK A01 T01420138  RH  097%=      5-min Rain = 0
KME1 240959Z 25002KT 14/14 A2986 RMK A01 T01420138  RH  098%=      5-min Rain = 0
KME1 241000Z 24002KT 14/14 A2986 RMK A01 T01420139  RH  098%=      5-min Rain = 0
KME1 241001Z 24002KT 14/14 A2986 RMK A01 T01410138  RH  098%=      5-min Rain = 0
KME1 241002Z 24001KT 14/14 A2986 RMK A01 T01410139  RH  098%=      5-min Rain = 0
KME1 241003Z 00000KT 14/14 A2986 RMK A01 T01410138  RH  098%=      5-min Rain = 0
KME1 241004Z 00000KT 14/14 A2986 RMK A01 T01410138  RH  098%=      5-min Rain = 0
KME1 241005Z 00000KT 14/14 A2986 RMK A01 T01400139  RH  099%=      5-min Rain = 0
KME1 241006Z 10000KT 14/14 A2986 RMK A01 T01400140  RH  100%=      5-min Rain = 0
KME1 241007Z 09001KT 14/14 A2986 RMK A01 T01400139  RH  099%=      5-min Rain = 0
KME1 241008Z 10001KT 14/14 A2986 RMK A01 T01390138  RH  100%=      5-min Rain = 0
KME1 241009Z 11001KT 14/14 A2986 RMK A01 T01380138  RH  100%=      5-min Rain = 0
KME1 241010Z 11002KT 14/14 A2986 RMK A01 T01380138  RH  100%=      5-min Rain = 0
KME1 241011Z 10002KT 14/14 A2986 RMK A01 T01370137  RH  100%=      5-min Rain = 0
KME1 241012Z 10002KT 14/14 A2986 RMK A01 T01370137  RH  100%=      5-min Rain = 0
KME1 241013Z 10002KT 14/14 A2986 RMK A01 T01370137  RH  100%=      5-min Rain = 0
KME1 241014Z 11001KT 14/14 A2986 RMK A01 T01370137  RH  100%=      5-min Rain = 0
KME1 241015Z 11001KT 14/14 A2986 RMK A01 T01370137  RH  100%=      5-min Rain = 0
KME1 241016Z 11000KT 14/14 A2986 RMK A01 T01370137  RH  100%=      5-min Rain = 0
KME1 241017Z 00000KT 14/14 A2986 RMK A01 T01370137  RH  100%=      5-min Rain = 0
KME1 241018Z 00000KT 14/14 A2986 RMK A01 T01370138  RH  100%=      5-min Rain = 0
KME1 241019Z 20000KT 14/14 A2986 RMK A01 T01380138  RH  100%=      5-min Rain = 0
KME1 241020Z 20000KT 14/14 A2986 RMK A01 T01380139  RH  100%=      5-min Rain = 0
KME1 241021Z 21000KT 14/14 A2986 RMK A01 T01390139  RH  100%=      5-min Rain = 0
KME1 241022Z 22000KT 14/14 A2986 RMK A01 T01390139  RH  100%=      5-min Rain = 0
KME1 241023Z 22001KT 14/14 A2986 RMK A01 T01390139  RH  100%=      5-min Rain = 0
KME1 241024Z 22001KT 14/14 A2986 RMK A01 T01390139  RH  100%=      5-min Rain = 0
KME1 241025Z 23001KT 14/14 A2986 RMK A01 T01390139  RH  100%=      5-min Rain = 0
KME1 241026Z 23001KT 14/14 A2986 RMK A01 T01390139  RH  100%=      5-min Rain = 0
KME1 241027Z 23001KT 14/14 A2986 RMK A01 T01390139  RH  100%=      5-min Rain = 0
KME1 241028Z 24001KT 14/14 A2986 RMK A01 T01390139  RH  100%=      5-min Rain = 0
KME1 241029Z 26001KT 14/14 A2986 RMK A01 T01390139  RH  100%=      5-min Rain = 0
KME1 241030Z 26002KT 14/14 A2986 RMK A01 T01400140  RH  100%=      5-min Rain = 0
KME1 241031Z 27002KT 14/14 A2986 RMK A01 T01410141  RH  100%=      5-min Rain = 0
KME1 241032Z 26002KT 14/14 A2986 RMK A01 T01410141  RH  100%=      5-min Rain = 0
KME1 241033Z 27002KT 14/14 A2986 RMK A01 T01410141  RH  100%=      5-min Rain = 0
KME1 241034Z 28002KT 14/14 A2986 RMK A01 T01410141  RH  100%=      5-min Rain = 0
KME1 241035Z 25001KT 14/14 A2986 RMK A01 T01410141  RH  100%=      5-min Rain = 0
KME1 241036Z 22002KT 14/14 A2986 RMK A01 T01410141  RH  100%=      5-min Rain = 0
KME1 241037Z 22002KT 14/14 A2986 RMK A01 T01410141  RH  100%=      5-min Rain = 0
KME1 241038Z 24001KT 14/14 A2986 RMK A01 T01410141  RH  100%=      5-min Rain = 0
KME1 241039Z 26001KT 14/14 A2986 RMK A01 T01410141  RH  100%=      5-min Rain = 0
KME1 241040Z 26000KT 14/14 A2986 RMK A01 T01400140  RH  100%=      5-min Rain = 0
KME1 241041Z 00000KT 14/14 A2986 RMK A01 T01400140  RH  100%=      5-min Rain = 0
KME1 241042Z 16000KT 14/14 A2986 RMK A01 T01400140  RH  100%=      5-min Rain = 0
KME1 241043Z 15001KT 14/14 A2986 RMK A01 T01390139  RH  100%=      5-min Rain = 0
KME1 241044Z 15001KT 14/14 A2986 RMK A01 T01380138  RH  100%=      5-min Rain = 0
KME1 241045Z 16002KT 14/14 A2986 RMK A01 T01370137  RH  100%=      5-min Rain = 0
KME1 241046Z 17002KT 14/14 A2986 RMK A01 T01360136  RH  100%=      5-min Rain = 0
KME1 241047Z 18002KT 14/14 A2986 RMK A01 T01350135  RH  100%=      5-min Rain = 0
KME1 241048Z 18002KT 14/14 A2986 RMK A01 T01350135  RH  100%=      5-min Rain = 0
KME1 241049Z 18002KT 14/14 A2986 RMK A01 T01350135  RH  100%=      5-min Rain = 0
KME1 241050Z 19002KT 13/14 A2986 RMK A01 T01340135  RH  100%=      5-min Rain = 0
KME1 241051Z 20003KT 14/14 A2986 RMK A01 T01350135  RH  100%=      5-min Rain = 0
KME1 241052Z 19003KT 14/14 A2986 RMK A01 T01350135  RH  100%=      5-min Rain = 0
KME1 241053Z 19003KT 14/14 A2986 RMK A01 T01350135  RH  100%=      5-min Rain = 0
KME1 241054Z 18003KT 14/14 A2986 RMK A01 T01350136  RH  100%=      5-min Rain = 0
KME1 241055Z 18003KT 14/14 A2986 RMK A01 T01360136  RH  100%=      5-min Rain = 0
KME1 241056Z 17003KT 14/14 A2986 RMK A01 T01360136  RH  100%=      5-min Rain = 0
KME1 241057Z 17002KT 14/14 A2986 RMK A01 T01360136  RH  100%=      5-min Rain = 0
KME1 241058Z 16002KT 14/14 A2986 RMK A01 T01360136  RH  100%=      5-min Rain = 0
KME1 241059Z 16002KT 14/14 A2986 RMK A01 T01350135  RH  100%=      5-min Rain = 0
KME1 241100Z 15002KT 13/13 A2986 RMK A01 T01340134  RH  100%=      5-min Rain = 0
KME1 241101Z 13001KT 13/13 A2986 RMK A01 T01330134  RH  100%=      5-min Rain = 0
KME1 241102Z 12001KT 13/13 A2986 RMK A01 T01330133  RH  100%=      5-min Rain = 0
KME1 241103Z 00000KT 13/13 A2986 RMK A01 T01310131  RH  100%=      5-min Rain = 0
KME1 241104Z 00000KT 13/13 A2986 RMK A01 T01310131  RH  100%=      5-min Rain = 0
KME1 241105Z 00000KT 13/13 A2986 RMK A01 T01310131  RH  100%=      5-min Rain = 0
KME1 241106Z 00000KT 13/13 A2986 RMK A01 T01310131  RH  100%=      5-min Rain = 0
KME1 241107Z 13000KT 13/13 A2986 RMK A01 T01310131  RH  100%=      5-min Rain = 0
KME1 241108Z 12000KT 13/13 A2986 RMK A01 T01310131  RH  100%=      5-min Rain = 0
KME1 241109Z 09001KT 13/13 A2986 RMK A01 T01310132  RH  100%=      5-min Rain = 0
KME1 241110Z 08001KT 13/13 A2986 RMK A01 T01320132  RH  100%=      5-min Rain = 0
KME1 241111Z 08001KT 13/13 A2986 RMK A01 T01320132  RH  100%=      5-min Rain = 0
KME1 241112Z 07001KT 13/13 A2986 RMK A01 T01310131  RH  100%=      5-min Rain = 0
KME1 241113Z 06001KT 13/13 A2986 RMK A01 T01310131  RH  100%=      5-min Rain = 0
KME1 241114Z 06001KT 13/13 A2986 RMK A01 T01310132  RH  100%=      5-min Rain = 0
KME1 241115Z 05001KT 13/13 A2987 RMK A01 T01320132  RH  100%=      5-min Rain = 0
KME1 241116Z 06001KT 13/13 A2987 RMK A01 T01320132  RH  100%=      5-min Rain = 0
KME1 241117Z 03001KT 13/13 A2987 RMK A01 T01320133  RH  100%=      5-min Rain = 0
KME1 241118Z 03002KT 13/13 A2987 RMK A01 T01320132  RH  100%=      5-min Rain = 0
KME1 241119Z 03002KT 13/13 A2987 RMK A01 T01330133  RH  100%=      5-min Rain = 0
KME1 241120Z 03002KT 13/13 A2987 RMK A01 T01330133  RH  100%=      5-min Rain = 0
KME1 241121Z 02002KT 13/13 A2987 RMK A01 T01340134  RH  100%=      5-min Rain = 0
KME1 241122Z 01002KT 13/13 A2987 RMK A01 T01340134  RH  100%=      5-min Rain = 0
KME1 241123Z 36002KT 14/14 A2987 RMK A01 T01350135  RH  100%=      5-min Rain = 0
KME1 241124Z 34001KT 14/14 A2987 RMK A01 T01350135  RH  100%=      5-min Rain = 0
KME1 241125Z 33001KT 14/14 A2987 RMK A01 T01350136  RH  100%=      5-min Rain = 0
KME1 241126Z 32001KT 14/14 A2987 RMK A01 T01350136  RH  100%=      5-min Rain = 0
KME1 241127Z 31001KT 14/14 A2987 RMK A01 T01360136  RH  100%=      5-min Rain = 0
KME1 241128Z 29002KT 14/14 A2987 RMK A01 T01360136  RH  100%=      5-min Rain = 0
KME1 241129Z 27002KT 14/14 A2987 RMK A01 T01370137  RH  100%=      5-min Rain = 0
KME1 241130Z 25002KT 14/14 A2987 RMK A01 T01370137  RH  100%=      5-min Rain = 0
KME1 241131Z 24002KT 14/14 A2987 RMK A01 T01380138  RH  100%=      5-min Rain = 0
KME1 241132Z 22002KT 14/14 A2987 RMK A01 T01390139  RH  100%=      5-min Rain = 0
KME1 241133Z 20003KT 14/14 A2987 RMK A01 T01400140  RH  100%=      5-min Rain = 0
KME1 241134Z 20003KT 14/14 A2987 RMK A01 T01420142  RH  100%=      5-min Rain = 0
KME1 241135Z 20004KT 15/15 A2987 RMK A01 T01450145  RH  100%=      5-min Rain = 0
KME1 241136Z 21004KT 15/15 A2987 RMK A01 T01480147  RH  100%=      5-min Rain = 0
KME1 241137Z 22004KT 15/15 A2987 RMK A01 T01500146  RH  098%=      5-min Rain = 0
KME1 241138Z 22004KT 15/15 A2987 RMK A01 T01510145  RH  096%=      5-min Rain = 0
KME1 241139Z 22004KT 15/14 A2988 RMK A01 T01520144  RH  095%=      5-min Rain = 0
KME1 241140Z 23005KT 15/14 A2988 RMK A01 T01530143  RH  093%=      5-min Rain = 0
KME1 241141Z 23005KT 15/14 A2988 RMK A01 T01540142  RH  093%=      5-min Rain = 0
KME1 241142Z 23005KT 15/14 A2988 RMK A01 T01540143  RH  093%=      5-min Rain = 0
KME1 241143Z 23006KT 15/14 A2988 RMK A01 T01540142  RH  093%=      5-min Rain = 0
KME1 241144Z 23006KT 16/14 A2988 RMK A01 T01550143  RH  092%=      5-min Rain = 0
KME1 241145Z 23005KT 16/14 A2988 RMK A01 T01550143  RH  092%=      5-min Rain = 0
KME1 241146Z 23005KT 16/14 A2988 RMK A01 T01560143  RH  092%=      5-min Rain = 0
KME1 241147Z 24005KT 16/14 A2988 RMK A01 T01560142  RH  091%=      5-min Rain = 0
KME1 241148Z 24005KT 16/14 A2988 RMK A01 T01560142  RH  091%=      5-min Rain = 0
KME1 241149Z 24006KT 16/14 A2988 RMK A01 T01560142  RH  091%=      5-min Rain = 0
KME1 241150Z 24006KT 16/14 A2988 RMK A01 T01560142  RH  091%=      5-min Rain = 0
KME1 241151Z 24005KT 16/14 A2988 RMK A01 T01560142  RH  091%=      5-min Rain = 0
KME1 241152Z 24006KT 16/14 A2988 RMK A01 T01570143  RH  091%=      5-min Rain = 0
KME1 241153Z 24005KT 16/14 A2988 RMK A01 T01570142  RH  091%=      5-min Rain = 0
KME1 241154Z 23005KT 16/14 A2989 RMK A01 T01570142  RH  090%=      5-min Rain = 0
KME1 241155Z 23005KT 16/14 A2988 RMK A01 T01570141  RH  090%=      5-min Rain = 0
KME1 241156Z 23004KT 16/14 A2988 RMK A01 T01570142  RH  090%=      5-min Rain = 0
KME1 241157Z 22004KT 16/14 A2988 RMK A01 T01560141  RH  090%=      5-min Rain = 0
KME1 241158Z 22005KT 16/14 A2988 RMK A01 T01550140  RH  091%=      5-min Rain = 0
KME1 241159Z 22004KT 15/14 A2988 RMK A01 T01530140  RH  092%=      5-min Rain = 0
KME1 241200Z 21004KT 15/14 A2988 RMK A01 T01520141  RH  093%=      5-min Rain = 0
KME1 241201Z 21003KT 15/14 A2988 RMK A01 T01500141  RH  094%=      5-min Rain = 0
KME1 241202Z 20003KT 15/14 A2988 RMK A01 T01490141  RH  095%=      5-min Rain = 0
KME1 241203Z 19002KT 15/14 A2988 RMK A01 T01490142  RH  096%=      5-min Rain = 0
KME1 241204Z 17002KT 15/14 A2988 RMK A01 T01490142  RH  096%=      5-min Rain = 0
KME1 241205Z 14001KT 15/14 A2989 RMK A01 T01480143  RH  097%=      5-min Rain = 0
KME1 241206Z 16001KT 15/14 A2989 RMK A01 T01480144  RH  097%=      5-min Rain = 0
KME1 241207Z 17000KT 15/14 A2989 RMK A01 T01480144  RH  097%=      5-min Rain = 0
KME1 241208Z 00000KT 15/15 A2989 RMK A01 T01480145  RH  098%=      5-min Rain = 0
KME1 241209Z 23000KT 15/15 A2989 RMK A01 T01480145  RH  098%=      5-min Rain = 0
KME1 241210Z 30001KT 15/15 A2989 RMK A01 T01490147  RH  099%=      5-min Rain = 0
KME1 241211Z 27001KT 15/15 A299 RMK A01 T01500149  RH  099%=      5-min Rain = 0
KME1 241212Z 18002KT 15/15 A299 RMK A01 T01510151  RH  100%=      5-min Rain = 0
KME1 241213Z 18002KT 15/15 A299 RMK A01 T01530153  RH  100%=      5-min Rain = 0
KME1 241214Z 30000KT 16/16 A299 RMK A01 T01560155  RH  099%=      5-min Rain = 0
KME1 241215Z 25001KT 16/15 A299 RMK A01 T01570154  RH  098%=      5-min Rain = 0
KME1 241216Z 23002KT 16/16 A299 RMK A01 T01590155  RH  098%=      5-min Rain = 0
KME1 241217Z 24003KT 16/16 A299 RMK A01 T01620157  RH  097%=      5-min Rain = 0
KME1 241218Z 26002KT 16/15 A299 RMK A01 T01640154  RH  094%=      5-min Rain = 0
KME1 241219Z 24003KT 17/15 A299 RMK A01 T01650152  RH  092%=      5-min Rain = 0
KME1 241220Z 23003KT 17/15 A299 RMK A01 T01660153  RH  092%=      5-min Rain = 0
KME1 241221Z 22004KT 17/15 A299 RMK A01 T01680154  RH  092%=      5-min Rain = 0
KME1 241222Z 22004G9KT 17/16 A299 RMK A01 T01690155  RH  091%=      5-min Rain = 0
KME1 241223Z 21004KT 17/16 A299 RMK A01 T01710156  RH  090%=      5-min Rain = 0
KME1 241224Z 21005KT 17/16 A299 RMK A01 T01730156  RH  090%=      5-min Rain = 0
KME1 241225Z 22004KT 17/16 A299 RMK A01 T01730156  RH  089%=      5-min Rain = 0
KME1 241226Z 20005KT 17/16 A299 RMK A01 T01740157  RH  090%=      5-min Rain = 0
KME1 241227Z 20004KT 18/16 A299 RMK A01 T01750158  RH  090%=      5-min Rain = 0
KME1 241228Z 19004KT 18/16 A299 RMK A01 T01750157  RH  089%=      5-min Rain = 0
KME1 241229Z 19006KT 18/16 A2989 RMK A01 T01760158  RH  089%=      5-min Rain = 0
KME1 241230Z 18006KT 18/16 A2989 RMK A01 T01770159  RH  089%=      5-min Rain = 0
KME1 241231Z 18006KT 18/16 A2989 RMK A01 T01780161  RH  090%=      5-min Rain = 0
KME1 241232Z 18006KT 18/16 A2989 RMK A01 T01790160  RH  089%=      5-min Rain = 0
KME1 241233Z 18008KT 18/16 A2989 RMK A01 T01790161  RH  089%=      5-min Rain = 0
KME1 241234Z 17006KT 18/16 A2989 RMK A01 T01800161  RH  089%=      5-min Rain = 0
KME1 241235Z 17008KT 18/16 A2989 RMK A01 T01800161  RH  088%=      5-min Rain = 0
KME1 241236Z 17006KT 18/16 A2989 RMK A01 T01810163  RH  089%=      5-min Rain = 0
KME1 241237Z 17004KT 18/16 A2989 RMK A01 T01820164  RH  089%=      5-min Rain = 0
KME1 241238Z 17005KT 18/17 A2989 RMK A01 T01830166  RH  090%=      5-min Rain = 0
KME1 241239Z 18005KT 18/17 A2989 RMK A01 T01840169  RH  091%=      5-min Rain = 0
KME1 241240Z 18006KT 19/17 A2989 RMK A01 T01850169  RH  090%=      5-min Rain = 0
KME1 241241Z 17005KT 19/17 A2989 RMK A01 T01870169  RH  090%=      5-min Rain = 0
KME1 241242Z 18005KT 19/17 A2989 RMK A01 T01880171  RH  090%=      5-min Rain = 0
KME1 241243Z 18005KT 19/17 A2989 RMK A01 T01890171  RH  090%=      5-min Rain = 0
KME1 241244Z 18007KT 19/17 A299 RMK A01 T01890171  RH  089%=      5-min Rain = 0
KME1 241245Z 18006KT 19/17 A299 RMK A01 T01900171  RH  089%=      5-min Rain = 0
KME1 241246Z 18005KT 19/17 A299 RMK A01 T01900170  RH  088%=      5-min Rain = 0
KME1 241247Z 18006KT 19/17 A299 RMK A01 T01910170  RH  088%=      5-min Rain = 0
KME1 241248Z 17005KT 19/17 A299 RMK A01 T01920171  RH  088%=      5-min Rain = 0
KME1 241249Z 18007KT 19/17 A299 RMK A01 T01920171  RH  088%=      5-min Rain = 0
KME1 241250Z 19008KT 19/17 A299 RMK A01 T01930172  RH  088%=      5-min Rain = 0
KME1 241251Z 18006KT 19/17 A299 RMK A01 T01940172  RH  087%=      5-min Rain = 0
KME1 241252Z 18007KT 20/17 A299 RMK A01 T01950172  RH  087%=      5-min Rain = 0
KME1 241253Z 16008KT 20/17 A299 RMK A01 T01950173  RH  087%=      5-min Rain = 0
KME1 241254Z 18007KT 20/18 A299 RMK A01 T01960175  RH  087%=      5-min Rain = 0
KME1 241255Z 17009KT 20/17 A299 RMK A01 T01970173  RH  086%=      5-min Rain = 0
KME1 241256Z 18009KT 20/17 A299 RMK A01 T01970174  RH  086%=      5-min Rain = 0
KME1 241257Z 18008KT 20/17 A299 RMK A01 T01980174  RH  086%=      5-min Rain = 0
KME1 241258Z 17008KT 20/17 A299 RMK A01 T01980174  RH  086%=      5-min Rain = 0
KME1 241259Z 17008KT 20/18 A299 RMK A01 T01990175  RH  086%=      5-min Rain = 0
KME1 241300Z 18006KT 20/18 A2991 RMK A01 T02000177  RH  087%=      5-min Rain = 0
KME1 241301Z 19007KT 20/18 A2991 RMK A01 T02010176  RH  085%=      5-min Rain = 0
KME1 241302Z 19007KT 20/18 A2991 RMK A01 T02020175  RH  085%=      5-min Rain = 0
KME1 241303Z 19006KT 20/18 A2991 RMK A01 T02020175  RH  085%=      5-min Rain = 0
KME1 241304Z 18007KT 20/18 A2991 RMK A01 T02020175  RH  085%=      5-min Rain = 0
KME1 241305Z 19009KT 20/18 A2991 RMK A01 T02010176  RH  085%=      5-min Rain = 0
KME1 241306Z 19011KT 20/17 A2991 RMK A01 T02010174  RH  085%=      5-min Rain = 0
KME1 241307Z 18009KT 20/17 A2991 RMK A01 T02000174  RH  085%=      5-min Rain = 0
KME1 241308Z 18010KT 20/18 A2991 RMK A01 T02000175  RH  085%=      5-min Rain = 0
KME1 241309Z 19011KT 20/18 A2991 RMK A01 T02000175  RH  086%=      5-min Rain = 0
KME1 241310Z 18009G15KT 20/18 A2991 RMK A01 T01990175  RH  086%=      5-min Rain = 0
KME1 241311Z 18013KT 20/18 A299 RMK A01 T01990176  RH  086%=      5-min Rain = 0
KME1 241312Z 19013KT 20/18 A299 RMK A01 T01990175  RH  086%=      5-min Rain = 0
KME1 241313Z 19012KT 20/18 A299 RMK A01 T01990175  RH  086%=      5-min Rain = 0
KME1 241314Z 18009KT 20/18 A299 RMK A01 T01990175  RH  086%=      5-min Rain = 0
KME1 241315Z 18011KT 20/18 A299 RMK A01 T01990175  RH  086%=      5-min Rain = 0
KME1 241316Z 18008KT 20/18 A299 RMK A01 T02000176  RH  086%=      5-min Rain = 0
KME1 241317Z 18009KT 20/18 A299 RMK A01 T02000177  RH  086%=      5-min Rain = 0
KME1 241318Z 18011KT 20/18 A299 RMK A01 T02010176  RH  086%=      5-min Rain = 0
KME1 241319Z 18010KT 20/18 A299 RMK A01 T02010177  RH  086%=      5-min Rain = 0
KME1 241320Z 18011KT 20/18 A299 RMK A01 T02010177  RH  086%=      5-min Rain = 0
KME1 241321Z 17011KT 20/18 A299 RMK A01 T02020177  RH  086%=      5-min Rain = 0
KME1 241322Z 17009G14KT 20/18 A299 RMK A01 T02020178  RH  086%=      5-min Rain = 0
KME1 241323Z 17013KT 20/18 A2989 RMK A01 T02020178  RH  086%=      5-min Rain = 0
KME1 241324Z 17012KT 20/18 A2989 RMK A01 T02030177  RH  085%=      5-min Rain = 0
KME1 241325Z 17007KT 20/18 A2989 RMK A01 T02030179  RH  086%=      5-min Rain = 0
KME1 241326Z 16010KT 20/18 A2989 RMK A01 T02040179  RH  086%=      5-min Rain = 0
KME1 241327Z 17009G14KT 20/18 A2989 RMK A01 T02040179  RH  085%=      5-min Rain = 0
KME1 241328Z 17011KT 21/18 A2989 RMK A01 T02050179  RH  085%=      5-min Rain = 0
KME1 241329Z 18012KT 21/18 A2989 RMK A01 T02050178  RH  084%=      5-min Rain = 0
KME1 241330Z 18010KT 21/18 A2989 RMK A01 T02050178  RH  084%=      5-min Rain = 0
KME1 241331Z 17013KT 21/18 A2989 RMK A01 T02060179  RH  084%=      5-min Rain = 0
KME1 241332Z 17013KT 21/18 A2989 RMK A01 T02070179  RH  084%=      5-min Rain = 0
KME1 241333Z 17014KT 21/18 A2989 RMK A01 T02070178  RH  083%=      5-min Rain = 0
KME1 241334Z 17012G17KT 21/18 A2989 RMK A01 T02080179  RH  084%=      5-min Rain = 0
KME1 241335Z 18010KT 21/18 A2989 RMK A01 T02090179  RH  083%=      5-min Rain = 0
KME1 241336Z 17013KT 21/18 A2989 RMK A01 T02090180  RH  083%=      5-min Rain = 0
KME1 241337Z 17012KT 21/18 A2989 RMK A01 T02100180  RH  083%=      5-min Rain = 0
KME1 241338Z 17010KT 21/18 A2989 RMK A01 T02110179  RH  082%=      5-min Rain = 0
KME1 241339Z 17011KT 21/18 A2989 RMK A01 T02110180  RH  082%=      5-min Rain = 0
KME1 241340Z 17012KT 21/18 A2989 RMK A01 T02120180  RH  082%=      5-min Rain = 0
KME1 241341Z 17013G19KT 21/18 A2989 RMK A01 T02130181  RH  082%=      5-min Rain = 0
KME1 241342Z 17016KT 21/18 A2988 RMK A01 T02130180  RH  081%=      5-min Rain = 0
KME1 241343Z 17014KT 21/18 A2988 RMK A01 T02130180  RH  082%=      5-min Rain = 0
KME1 241344Z 17013KT 21/18 A2989 RMK A01 T02130181  RH  082%=      5-min Rain = 0
KME1 241345Z 17012KT 21/18 A2989 RMK A01 T02130181  RH  082%=      5-min Rain = 0
KME1 241346Z 17016KT 21/18 A2988 RMK A01 T02130181  RH  082%=      5-min Rain = 0
KME1 241347Z 17011KT 21/18 A2988 RMK A01 T02130181  RH  082%=      5-min Rain = 0
KME1 241348Z 17011KT 21/18 A2988 RMK A01 T02130182  RH  082%=      5-min Rain = 0
KME1 241349Z 17011KT 21/18 A2988 RMK A01 T02140181  RH  082%=      5-min Rain = 0
KME1 241350Z 16009KT 21/18 A2988 RMK A01 T02140183  RH  082%=      5-min Rain = 0
KME1 241351Z 17009KT 22/18 A2988 RMK A01 T02150183  RH  082%=      5-min Rain = 0
KME1 241352Z 17013KT 22/18 A2988 RMK A01 T02160182  RH  081%=      5-min Rain = 0
KME1 241353Z 17015KT 22/18 A2988 RMK A01 T02160181  RH  081%=      5-min Rain = 0
KME1 241354Z 16012KT 22/18 A2988 RMK A01 T02150181  RH  081%=      5-min Rain = 0
KME1 241355Z 16011KT 22/18 A2989 RMK A01 T02150182  RH  081%=      5-min Rain = 0
KME1 241356Z 16011KT 22/18 A2989 RMK A01 T02160182  RH  081%=      5-min Rain = 0
KME1 241357Z 16014KT 22/18 A2988 RMK A01 T02160181  RH  081%=      5-min Rain = 0
KME1 241358Z 17015G21KT 22/18 A2988 RMK A01 T02160182  RH  081%=      5-min Rain = 0
KME1 241359Z 15012KT 22/18 A2988 RMK A01 T02160181  RH  081%=      5-min Rain = 0
KME1 241400Z 15012KT 22/18 A2989 RMK A01 T02150182  RH  081%=      5-min Rain = 0
KME1 241401Z 15012KT 22/18 A2989 RMK A01 T02160182  RH  081%=      5-min Rain = 0
KME1 241402Z 15009KT 22/18 A2989 RMK A01 T02160183  RH  081%=      5-min Rain = 0
KME1 241403Z 15010KT 22/18 A2989 RMK A01 T02170184  RH  081%=      5-min Rain = 0
KME1 241404Z 16012G18KT 22/18 A2989 RMK A01 T02180184  RH  081%=      5-min Rain = 0
KME1 241405Z 16010KT 22/18 A2989 RMK A01 T02190184  RH  081%=      5-min Rain = 0
KME1 241406Z 16011KT 22/18 A2989 RMK A01 T02190184  RH  080%=      5-min Rain = 0
KME1 241407Z 16010KT 22/18 A2989 RMK A01 T02190182  RH  079%=      5-min Rain = 0
KME1 241408Z 15012G17KT 22/18 A2989 RMK A01 T02200183  RH  079%=      5-min Rain = 0
KME1 241409Z 16015KT 22/18 A2989 RMK A01 T02200182  RH  079%=      5-min Rain = 0
KME1 241410Z 16010KT 22/18 A2989 RMK A01 T02200183  RH  079%=      5-min Rain = 0
KME1 241411Z 16011G16KT 22/18 A2989 RMK A01 T02200183  RH  079%=      5-min Rain = 0
KME1 241412Z 15013KT 22/18 A2989 RMK A01 T02210183  RH  079%=      5-min Rain = 0
KME1 241413Z 17015KT 22/18 A2989 RMK A01 T02210182  RH  079%=      5-min Rain = 0
KME1 241414Z 16011KT 22/18 A2989 RMK A01 T02210182  RH  079%=      5-min Rain = 0
KME1 241415Z 17010KT 22/18 A2989 RMK A01 T02210183  RH  079%=      5-min Rain = 0
KME1 241416Z 17012KT 22/18 A2989 RMK A01 T02220183  RH  079%=      5-min Rain = 0
KME1 241417Z 16014G19KT 22/18 A2989 RMK A01 T02220182  RH  078%=      5-min Rain = 0
KME1 241418Z 17015KT 22/18 A2989 RMK A01 T02220182  RH  078%=      5-min Rain = 0
KME1 241419Z 16012G17KT 22/18 A2989 RMK A01 T02220182  RH  078%=      5-min Rain = 0
KME1 241420Z 16017KT 22/18 A2989 RMK A01 T02220183  RH  079%=      5-min Rain = 0
KME1 241421Z 16016KT 22/18 A2989 RMK A01 T02220182  RH  078%=      5-min Rain = 0
KME1 241422Z 16014G20KT 22/18 A2989 RMK A01 T02220183  RH  078%=      5-min Rain = 0
KME1 241423Z 16015G21KT 22/18 A2989 RMK A01 T02220183  RH  079%=      5-min Rain = 0
KME1 241424Z 16018G23KT 22/18 A2989 RMK A01 T02220182  RH  078%=      5-min Rain = 0
KME1 241425Z 16017G22KT 22/18 A2989 RMK A01 T02220183  RH  079%=      5-min Rain = 0
KME1 241426Z 17017KT 22/18 A2989 RMK A01 T02210183  RH  079%=      5-min Rain = 0
KME1 241427Z 17016KT 22/18 A2989 RMK A01 T02210183  RH  079%=      5-min Rain = 0
KME1 241428Z 16017KT 22/18 A2989 RMK A01 T02210183  RH  079%=      5-min Rain = 0
KME1 241429Z 16012KT 22/18 A2989 RMK A01 T02200183  RH  079%=      5-min Rain = 0
KME1 241430Z 17017G22KT 22/18 A2989 RMK A01 T02200183  RH  079%=      5-min Rain = 0
KME1 241431Z 16013KT 22/18 A2989 RMK A01 T02200183  RH  079%=      5-min Rain = 0
KME1 241432Z 17013KT 22/18 A2989 RMK A01 T02200184  RH  080%=      5-min Rain = 0
KME1 241433Z 17013KT 22/18 A2989 RMK A01 T02200184  RH  080%=      5-min Rain = 0
KME1 241434Z 17012KT 22/18 A2989 RMK A01 T02200183  RH  079%=      5-min Rain = 0
KME1 241435Z 17012KT 22/18 A2989 RMK A01 T02210184  RH  079%=      5-min Rain = 0
KME1 241436Z 15014KT 22/18 A2989 RMK A01 T02210183  RH  079%=      5-min Rain = 0
KME1 241437Z 16016KT 22/18 A2989 RMK A01 T02210183  RH  079%=      5-min Rain = 0
KME1 241438Z 17014G19KT 22/18 A2989 RMK A01 T02210183  RH  079%=      5-min Rain = 0
KME1 241439Z 17011KT 22/18 A2989 RMK A01 T02220184  RH  079%=      5-min Rain = 0
KME1 241440Z 15013G18KT 22/18 A2989 RMK A01 T02230184  RH  079%=      5-min Rain = 0
KME1 241441Z 16015G20KT 22/18 A2989 RMK A01 T02230183  RH  078%=      5-min Rain = 0
KME1 241442Z 15013KT 22/18 A2989 RMK A01 T02230184  RH  078%=      5-min Rain = 0
KME1 241443Z 15011KT 22/18 A2989 RMK A01 T02240184  RH  078%=      5-min Rain = 0
KME1 241444Z 15013KT 23/19 A2988 RMK A01 T02250185  RH  078%=      5-min Rain = 0
KME1 241445Z 17011KT 23/18 A2989 RMK A01 T02260184  RH  077%=      5-min Rain = 0
KME1 241446Z 17011KT 23/19 A2989 RMK A01 T02270186  RH  078%=      5-min Rain = 0
KME1 241447Z 17012G19KT 23/19 A2988 RMK A01 T02290186  RH  077%=      5-min Rain = 0
KME1 241448Z 17014G19KT 23/19 A2988 RMK A01 T02300185  RH  076%=      5-min Rain = 0
KME1 241449Z 17014KT 23/19 A2988 RMK A01 T02300185  RH  076%=      5-min Rain = 0
KME1 241450Z 18012KT 23/19 A2988 RMK A01 T02300185  RH  076%=      5-min Rain = 0
KME1 241451Z 17012KT 23/19 A2988 RMK A01 T02300186  RH  076%=      5-min Rain = 0
KME1 241452Z 17015KT 23/19 A2988 RMK A01 T02310185  RH  075%=      5-min Rain = 0
KME1 241453Z 16013KT 23/19 A2988 RMK A01 T02310185  RH  075%=      5-min Rain = 0
KME1 241454Z 17012G20KT 23/19 A2988 RMK A01 T02320186  RH  075%=      5-min Rain = 0
KME1 241455Z 17014KT 23/19 A2988 RMK A01 T02330186  RH  075%=      5-min Rain = 0
KME1 241456Z 18015KT 23/19 A2988 RMK A01 T02340186  RH  074%=      5-min Rain = 0
KME1 241457Z 17011KT 24/19 A2988 RMK A01 T02350185  RH  074%=      5-min Rain = 0
KME1 241458Z 17014KT 24/19 A2988 RMK A01 T02350186  RH  074%=      5-min Rain = 0
KME1 241459Z 17014G19KT 24/19 A2988 RMK A01 T02350185  RH  074%=      5-min Rain = 0
KME1 241500Z 16013KT 23/19 A2988 RMK A01 T02340186  RH  074%=      5-min Rain = 0
KME1 241501Z 17015G20KT 23/19 A2988 RMK A01 T02340185  RH  074%=      5-min Rain = 0
KME1 241502Z 18015KT 24/19 A2988 RMK A01 T02350185  RH  074%=      5-min Rain = 0
KME1 241503Z 18015KT 24/19 A2988 RMK A01 T02360186  RH  073%=      5-min Rain = 0
KME1 241504Z 17009KT 24/19 A2988 RMK A01 T02380187  RH  073%=      5-min Rain = 0
KME1 241505Z 16014G20KT 24/19 A2988 RMK A01 T02410189  RH  072%=      5-min Rain = 0
KME1 241506Z 17016KT 24/19 A2988 RMK A01 T02430187  RH  071%=      5-min Rain = 0
KME1 241507Z 16012KT 24/19 A2988 RMK A01 T02420187  RH  071%=      5-min Rain = 0
KME1 241508Z 17011KT 24/19 A2988 RMK A01 T02420187  RH  071%=      5-min Rain = 0
KME1 241509Z 16012KT 24/19 A2988 RMK A01 T02430188  RH  071%=      5-min Rain = 0
KME1 241510Z 17016G21KT 24/19 A2988 RMK A01 T02440187  RH  070%=      5-min Rain = 0
KME1 241511Z 17016KT 24/19 A2988 RMK A01 T02430186  RH  070%=      5-min Rain = 0
KME1 241512Z 16013KT 24/19 A2988 RMK A01 T02420186  RH  071%=      5-min Rain = 0
KME1 241513Z 16013KT 24/19 A2988 RMK A01 T02420187  RH  071%=      5-min Rain = 0
KME1 241514Z 19012KT 24/19 A2988 RMK A01 T02430186  RH  071%=      5-min Rain = 0
KME1 241515Z 18013G19KT 24/19 A2988 RMK A01 T02430187  RH  071%=      5-min Rain = 0
KME1 241516Z 18016G24KT 24/19 A2988 RMK A01 T02440186  RH  070%=      5-min Rain = 0
KME1 241517Z 17017G24KT 24/19 A2988 RMK A01 T02430185  RH  070%=      5-min Rain = 0
KME1 241518Z 17016KT 24/19 A2988 RMK A01 T02420185  RH  071%=      5-min Rain = 0
KME1 241519Z 18016KT 24/19 A2988 RMK A01 T02420185  RH  071%=      5-min Rain = 0
KME1 241520Z 18015KT 24/19 A2988 RMK A01 T02420186  RH  071%=      5-min Rain = 0
KME1 241521Z 18017KT 24/19 A2988 RMK A01 T02430185  RH  070%=      5-min Rain = 0
KME1 241522Z 18017KT 24/19 A2988 RMK A01 T02420186  RH  071%=      5-min Rain = 0
KME1 241523Z 18014G19KT 24/19 A2988 RMK A01 T02440186  RH  070%=      5-min Rain = 0
KME1 241524Z 18013KT 25/19 A2988 RMK A01 T02450186  RH  070%=      5-min Rain = 0
KME1 241525Z 18016G21KT 25/19 A2988 RMK A01 T02450186  RH  070%=      5-min Rain = 0
KME1 241526Z 18014G19KT 25/19 A2988 RMK A01 T02450187  RH  070%=      5-min Rain = 0
KME1 241527Z 18015G20KT 25/19 A2988 RMK A01 T02450186  RH  070%=      5-min Rain = 0
KME1 241528Z 18012KT 25/19 A2988 RMK A01 T02460188  RH  070%=      5-min Rain = 0
KME1 241529Z 17013KT 25/19 A2988 RMK A01 T02490188  RH  069%=      5-min Rain = 0
KME1 241530Z 17014KT 25/19 A2988 RMK A01 T02500188  RH  068%=      5-min Rain = 0
KME1 241531Z 18013G21KT 25/19 A2988 RMK A01 T02500188  RH  068%=      5-min Rain = 0
KME1 241532Z 18014KT 25/19 A2987 RMK A01 T02490187  RH  068%=      5-min Rain = 0
KME1 241533Z 17012KT 25/19 A2987 RMK A01 T02490187  RH  069%=      5-min Rain = 0
KME1 241534Z 18010KT 25/19 A2988 RMK A01 T02490188  RH  069%=      5-min Rain = 0
KME1 241535Z 17014KT 25/19 A2987 RMK A01 T02500187  RH  068%=      5-min Rain = 0
KME1 241536Z 17016G21KT 25/19 A2987 RMK A01 T02520187  RH  067%=      5-min Rain = 0
KME1 241537Z 18017KT 25/19 A2987 RMK A01 T02520185  RH  067%=      5-min Rain = 0
KME1 241538Z 18018KT 25/19 A2987 RMK A01 T02500185  RH  067%=      5-min Rain = 0
KME1 241539Z 18016G21KT 25/19 A2987 RMK A01 T02500186  RH  068%=      5-min Rain = 0
KME1 241540Z 18013KT 25/19 A2987 RMK A01 T02510188  RH  068%=      5-min Rain = 0
KME1 241541Z 18014KT 26/19 A2987 RMK A01 T02550189  RH  067%=      5-min Rain = 0
KME1 241542Z 19013G18KT 26/19 A2987 RMK A01 T02570187  RH  065%=      5-min Rain = 0
KME1 241543Z 18016KT 26/19 A2987 RMK A01 T02570187  RH  065%=      5-min Rain = 0
KME1 241544Z 18014KT 26/19 A2987 RMK A01 T02570188  RH  066%=      5-min Rain = 0
KME1 241545Z 17012KT 26/19 A2987 RMK A01 T02580189  RH  066%=      5-min Rain = 0
KME1 241546Z 16018KT 26/19 A2987 RMK A01 T02600188  RH  065%=      5-min Rain = 0
KME1 241547Z 16015G22KT 26/19 A2987 RMK A01 T02600188  RH  064%=      5-min Rain = 0
KME1 241548Z 16018KT 26/19 A2987 RMK A01 T02610188  RH  064%=      5-min Rain = 0
KME1 241549Z 16018KT 26/19 A2987 RMK A01 T02610188  RH  064%=      5-min Rain = 0
KME1 241550Z 17018G23KT 26/19 A2987 RMK A01 T02610187  RH  064%=      5-min Rain = 0
KME1 241551Z 16016G21KT 26/19 A2987 RMK A01 T02590187  RH  065%=      5-min Rain = 0
KME1 241552Z 18015KT 26/19 A2987 RMK A01 T02600189  RH  065%=      5-min Rain = 0
KME1 241553Z 16016G21KT 26/19 A2987 RMK A01 T02620188  RH  064%=      5-min Rain = 0
KME1 241554Z 18013KT 26/19 A2987 RMK A01 T02610189  RH  064%=      5-min Rain = 0
KME1 241555Z 17014G19KT 26/19 A2987 RMK A01 T02620188  RH  064%=      5-min Rain = 0
KME1 241556Z 18012KT 26/19 A2987 RMK A01 T02620188  RH  064%=      5-min Rain = 0
KME1 241557Z 19016G25KT 26/19 A2986 RMK A01 T02630188  RH  063%=      5-min Rain = 0
KME1 241558Z 16012G19KT 26/19 A2987 RMK A01 T02630189  RH  063%=      5-min Rain = 0
KME1 241559Z 16015KT 26/19 A2987 RMK A01 T02640188  RH  063%=      5-min Rain = 0
KME1 241600Z 16012G18KT 26/19 A2987 RMK A01 T02640189  RH  063%=      5-min Rain = 0
KME1 241601Z 16014G23KT 27/19 A2987 RMK A01 T02650191  RH  064%=      5-min Rain = 0
KME1 241602Z 16017KT 27/19 A2987 RMK A01 T02660188  RH  062%=      5-min Rain = 0
KME1 241603Z 17021G28KT 27/19 A2987 RMK A01 T02650188  RH  063%=      5-min Rain = 0
KME1 241604Z 17019G24KT 26/19 A2987 RMK A01 T02630186  RH  063%=      5-min Rain = 0
KME1 241605Z 16018KT 26/19 A2987 RMK A01 T02620186  RH  063%=      5-min Rain = 0
KME1 241606Z 17016KT 27/19 A2986 RMK A01 T02660188  RH  063%=      5-min Rain = 0
KME1 241607Z 18019KT 27/19 A2986 RMK A01 T02690189  RH  061%=      5-min Rain = 0
KME1 241608Z 18015KT 27/19 A2986 RMK A01 T02710188  RH  061%=      5-min Rain = 0
KME1 241609Z 17014KT 27/19 A2986 RMK A01 T02710188  RH  060%=      5-min Rain = 0
KME1 241610Z 17014KT 27/19 A2987 RMK A01 T02700188  RH  061%=      5-min Rain = 0
KME1 241611Z 17014KT 27/19 A2987 RMK A01 T02690190  RH  062%=      5-min Rain = 0
KME1 241612Z 16016KT 27/19 A2986 RMK A01 T02700189  RH  061%=      5-min Rain = 0
KME1 241613Z 17015KT 27/19 A2986 RMK A01 T02690188  RH  061%=      5-min Rain = 0
KME1 241614Z 16016G22KT 27/19 A2986 RMK A01 T02670187  RH  062%=      5-min Rain = 0
KME1 241615Z 16015KT 27/19 A2986 RMK A01 T02660187  RH  062%=      5-min Rain = 0
KME1 241616Z 17019KT 27/19 A2986 RMK A01 T02660186  RH  061%=      5-min Rain = 0
KME1 241617Z 17018KT 27/19 A2986 RMK A01 T02650186  RH  062%=      5-min Rain = 0
KME1 241618Z 17015G22KT 27/19 A2986 RMK A01 T02650186  RH  062%=      5-min Rain = 0
KME1 241619Z 17016KT 27/19 A2986 RMK A01 T02670187  RH  062%=      5-min Rain = 0
KME1 241620Z 18016G22KT 27/19 A2986 RMK A01 T02670186  RH  061%=      5-min Rain = 0
KME1 241621Z 18015KT 27/19 A2986 RMK A01 T02670186  RH  061%=      5-min Rain = 0
KME1 241622Z 17018KT 27/19 A2986 RMK A01 T02650186  RH  062%=      5-min Rain = 0
KME1 241623Z 17015KT 27/19 A2986 RMK A01 T02670187  RH  061%=      5-min Rain = 0
KME1 241624Z 17013G18KT 27/19 A2986 RMK A01 T02700189  RH  061%=      5-min Rain = 0
KME1 241625Z 18013KT 27/19 A2986 RMK A01 T02720189  RH  060%=      5-min Rain = 0
KME1 241626Z 18016KT 27/19 A2986 RMK A01 T02720188  RH  060%=      5-min Rain = 0
KME1 241627Z 18016G24KT 27/19 A2986 RMK A01 T02700187  RH  060%=      5-min Rain = 0
KME1 241628Z 17018G23KT 27/19 A2986 RMK A01 T02680187  RH  061%=      5-min Rain = 0
KME1 241629Z 17018G26KT 27/19 A2986 RMK A01 T02660186  RH  061%=      5-min Rain = 0
KME1 241630Z 19019KT 27/19 A2986 RMK A01 T02680186  RH  060%=      5-min Rain = 0
KME1 241631Z 18017KT 27/19 A2986 RMK A01 T02690185  RH  060%=      5-min Rain = 0
KME1 241632Z 17020G27KT 27/19 A2986 RMK A01 T02710186  RH  060%=      5-min Rain = 0
KME1 241633Z 17024KT 27/18 A2986 RMK A01 T02730184  RH  058%=      5-min Rain = 0
KME1 241634Z 17020G25KT 27/19 A2986 RMK A01 T02730185  RH  059%=      5-min Rain = 0
KME1 241635Z 17018G26KT 28/19 A2986 RMK A01 T02750186  RH  058%=      5-min Rain = 0
KME1 241636Z 19016G24KT 28/19 A2986 RMK A01 T02770188  RH  058%=      5-min Rain = 0
KME1 241637Z 18019KT 28/19 A2986 RMK A01 T02770187  RH  058%=      5-min Rain = 0
KME1 241638Z 18017KT 28/19 A2986 RMK A01 T02780187  RH  058%=      5-min Rain = 0
KME1 241639Z 17019KT 28/19 A2986 RMK A01 T02770188  RH  058%=      5-min Rain = 0
KME1 241640Z 17017KT 28/19 A2986 RMK A01 T02770187  RH  058%=      5-min Rain = 0
KME1 241641Z 17016KT 28/19 A2986 RMK A01 T02780188  RH  058%=      5-min Rain = 0
KME1 241642Z 17015KT 28/19 A2986 RMK A01 T02780188  RH  058%=      5-min Rain = 0
KME1 241643Z 17019KT 28/19 A2986 RMK A01 T02780188  RH  058%=      5-min Rain = 0
KME1 241644Z 18017KT 28/19 A2986 RMK A01 T02750185  RH  058%=      5-min Rain = 0
KME1 241645Z 18018KT 27/19 A2986 RMK A01 T02730187  RH  059%=      5-min Rain = 0
KME1 241646Z 19016KT 28/19 A2986 RMK A01 T02760187  RH  058%=      5-min Rain = 0
KME1 241647Z 18016KT 28/19 A2986 RMK A01 T02780187  RH  058%=      5-min Rain = 0
KME1 241648Z 19013KT 28/19 A2986 RMK A01 T02780188  RH  058%=      5-min Rain = 0
KME1 241649Z 19016G21KT 28/19 A2986 RMK A01 T02800189  RH  057%=      5-min Rain = 0
KME1 241650Z 19017G23KT 28/19 A2986 RMK A01 T02820188  RH  057%=      5-min Rain = 0
KME1 241651Z 18019KT 28/19 A2986 RMK A01 T02830188  RH  056%=      5-min Rain = 0
KME1 241652Z 17016G21KT 28/19 A2986 RMK A01 T02810188  RH  057%=      5-min Rain = 0
KME1 241653Z 16015G21KT 28/19 A2986 RMK A01 T02810188  RH  057%=      5-min Rain = 0
KME1 241654Z 17017KT 28/19 A2986 RMK A01 T02820188  RH  057%=      5-min Rain = 0
KME1 241655Z 17016KT 28/19 A2986 RMK A01 T02830188  RH  057%=      5-min Rain = 0
KME1 241656Z 18017G23KT 28/19 A2986 RMK A01 T02830188  RH  056%=      5-min Rain = 0
KME1 241657Z 18016G21KT 28/19 A2986 RMK A01 T02830188  RH  056%=      5-min Rain = 0
KME1 241658Z 17013G20KT 28/19 A2986 RMK A01 T02830188  RH  056%=      5-min Rain = 0
KME1 241659Z 18012KT 29/19 A2986 RMK A01 T02860190  RH  056%=      5-min Rain = 0
KME1 241700Z 16018G24KT 29/19 A2986 RMK A01 T02890190  RH  055%=      5-min Rain = 0
KME1 241701Z 17020KT 29/19 A2986 RMK A01 T02890188  RH  054%=      5-min Rain = 0
KME1 241702Z 17015KT 29/19 A2986 RMK A01 T02870187  RH  055%=      5-min Rain = 0
KME1 241703Z 17017KT 29/19 A2986 RMK A01 T02870188  RH  055%=      5-min Rain = 0
KME1 241704Z 17017G24KT 29/19 A2986 RMK A01 T02860186  RH  055%=      5-min Rain = 0
KME1 241705Z 17014KT 28/19 A2986 RMK A01 T02830187  RH  056%=      5-min Rain = 0
KME1 241706Z 18012KT 28/19 A2986 RMK A01 T02830187  RH  056%=      5-min Rain = 0
KME1 241707Z 17013G19KT 28/19 A2986 RMK A01 T02830188  RH  057%=      5-min Rain = 0
KME1 241708Z 16017KT 29/19 A2986 RMK A01 T02850188  RH  056%=      5-min Rain = 0
KME1 241709Z 16018G24KT 29/19 A2986 RMK A01 T02860189  RH  056%=      5-min Rain = 0
KME1 241710Z 17016G21KT 29/19 A2986 RMK A01 T02880190  RH  055%=      5-min Rain = 0
KME1 241711Z 18018KT 29/19 A2986 RMK A01 T02880188  RH  055%=      5-min Rain = 0
KME1 241712Z 17018G24KT 29/19 A2986 RMK A01 T02870188  RH  055%=      5-min Rain = 0
KME1 241713Z 17015KT 29/19 A2986 RMK A01 T02880188  RH  055%=      5-min Rain = 0
KME1 241714Z 17014KT 29/19 A2986 RMK A01 T02900189  RH  054%=      5-min Rain = 0
KME1 241715Z 16015KT 29/19 A2986 RMK A01 T02900188  RH  054%=      5-min Rain = 0
KME1 241716Z 18016KT 29/19 A2986 RMK A01 T02870188  RH  055%=      5-min Rain = 0
KME1 241717Z 19013KT 29/19 A2986 RMK A01 T02860189  RH  056%=      5-min Rain = 0
KME1 241718Z 17015G20KT 29/19 A2986 RMK A01 T02890191  RH  055%=      5-min Rain = 0
KME1 241719Z 18014G19KT 29/19 A2986 RMK A01 T02910189  RH  054%=      5-min Rain = 0
KME1 241720Z 17012G20KT 29/19 A2986 RMK A01 T02890190  RH  055%=      5-min Rain = 0
KME1 241721Z 16019G26KT 29/19 A2986 RMK A01 T02880189  RH  055%=      5-min Rain = 0
KME1 241722Z 16018KT 29/19 A2986 RMK A01 T02880189  RH  055%=      5-min Rain = 0
KME1 241723Z 16017KT 29/19 A2986 RMK A01 T02880189  RH  055%=      5-min Rain = 0
KME1 241724Z 18013KT 29/19 A2986 RMK A01 T02910190  RH  055%=      5-min Rain = 0
KME1 241725Z 19015G21KT 29/19 A2986 RMK A01 T02920189  RH  054%=      5-min Rain = 0
KME1 241726Z 19016G21KT 29/19 A2986 RMK A01 T02910187  RH  053%=      5-min Rain = 0
KME1 241727Z 18014G19KT 29/18 A2986 RMK A01 T02890184  RH  053%=      5-min Rain = 0
KME1 241728Z 17015KT 29/19 A2985 RMK A01 T02870186  RH  054%=      5-min Rain = 0
KME1 241729Z 16017G22KT 29/19 A2986 RMK A01 T02900189  RH  054%=      5-min Rain = 0
KME1 241730Z 17015G21KT 29/19 A2985 RMK A01 T02930188  RH  053%=      5-min Rain = 0
KME1 241731Z 17015KT 29/19 A2985 RMK A01 T02940188  RH  053%=      5-min Rain = 0
KME1 241732Z 17015KT 30/19 A2985 RMK A01 T02960189  RH  053%=      5-min Rain = 0
KME1 241733Z 16015G20KT 30/19 A2985 RMK A01 T02970190  RH  053%=      5-min Rain = 0
KME1 241734Z 17018KT 30/19 A2985 RMK A01 T03000188  RH  051%=      5-min Rain = 0
KME1 241735Z 18019KT 30/19 A2985 RMK A01 T02980185  RH  051%=      5-min Rain = 0
KME1 241736Z 18015KT 30/19 A2985 RMK A01 T02950187  RH  052%=      5-min Rain = 0
KME1 241737Z 18016G23KT 29/19 A2985 RMK A01 T02940187  RH  053%=      5-min Rain = 0
KME1 241738Z 18017KT 29/19 A2985 RMK A01 T02940187  RH  053%=      5-min Rain = 0
KME1 241739Z 18016KT 29/19 A2985 RMK A01 T02930188  RH  053%=      5-min Rain = 0
KME1 241740Z 17017KT 29/19 A2985 RMK A01 T02930188  RH  053%=      5-min Rain = 0
KME1 241741Z 17018G23KT 29/19 A2985 RMK A01 T02940188  RH  053%=      5-min Rain = 0
KME1 241742Z 15015G21KT 29/19 A2985 RMK A01 T02940189  RH  053%=      5-min Rain = 0
KME1 241743Z 16017KT 29/19 A2985 RMK A01 T02940188  RH  053%=      5-min Rain = 0
KME1 241744Z 17014KT 30/19 A2985 RMK A01 T02970191  RH  053%=      5-min Rain = 0
KME1 241745Z 15015G21KT 30/19 A2985 RMK A01 T03000189  RH  051%=      5-min Rain = 0
KME1 241746Z 15018KT 30/19 A2984 RMK A01 T02980187  RH  052%=      5-min Rain = 0
KME1 241747Z 17019KT 30/19 A2984 RMK A01 T02970187  RH  052%=      5-min Rain = 0
KME1 241748Z 18018G23KT 30/19 A2984 RMK A01 T02970187  RH  052%=      5-min Rain = 0
KME1 241749Z 18018KT 30/19 A2984 RMK A01 T02980186  RH  051%=      5-min Rain = 0
KME1 241750Z 19016G24KT 30/19 A2984 RMK A01 T02980187  RH  051%=      5-min Rain = 0
KME1 241751Z 19017KT 30/19 A2984 RMK A01 T02990185  RH  050%=      5-min Rain = 0
KME1 241752Z 20012G17KT 30/19 A2984 RMK A01 T02980187  RH  051%=      5-min Rain = 0
KME1 241753Z 18015G24KT 30/19 A2984 RMK A01 T03020189  RH  051%=      5-min Rain = 0
KME1 241754Z 17015KT 30/19 A2984 RMK A01 T03030188  RH  050%=      5-min Rain = 0
KME1 241755Z 17019G27KT 30/19 A2984 RMK A01 T03010187  RH  050%=      5-min Rain = 0
KME1 241756Z 19013G18KT 30/19 A2984 RMK A01 T03010187  RH  050%=      5-min Rain = 0
KME1 241757Z 19015KT 30/19 A2984 RMK A01 T03020188  RH  050%=      5-min Rain = 0
KME1 241758Z 18019KT 30/19 A2984 RMK A01 T03040186  RH  049%=      5-min Rain = 0
KME1 241759Z 17018KT 30/18 A2984 RMK A01 T03020184  RH  049%=      5-min Rain = 0
KME1 241800Z 18018KT 30/18 A2984 RMK A01 T03010184  RH  049%=      5-min Rain = 0
KME1 241801Z 16016KT 30/18 A2984 RMK A01 T03000183  RH  049%=      5-min Rain = 0
KME1 241802Z 17016KT 30/18 A2984 RMK A01 T03000184  RH  050%=      5-min Rain = 0
KME1 241803Z 19016KT 30/19 A2984 RMK A01 T03010185  RH  050%=      5-min Rain = 0
KME1 241804Z 20018G23KT 30/18 A2983 RMK A01 T03030184  RH  049%=      5-min Rain = 0
KME1 241805Z 18016KT 31/18 A2984 RMK A01 T03060184  RH  048%=      5-min Rain = 0
KME1 241806Z 17022KT 31/18 A2983 RMK A01 T03060184  RH  048%=      5-min Rain = 0
KME1 241807Z 17019G24KT 30/19 A2983 RMK A01 T03020186  RH  050%=      5-min Rain = 0
KME1 241808Z 18018KT 30/18 A2983 RMK A01 T03020184  RH  049%=      5-min Rain = 0
KME1 241809Z 17015KT 30/19 A2984 RMK A01 T03030185  RH  049%=      5-min Rain = 0
KME1 241810Z 19015G20KT 30/18 A2984 RMK A01 T03040182  RH  048%=      5-min Rain = 0
KME1 241811Z 19016G22KT 30/18 A2983 RMK A01 T03010183  RH  049%=      5-min Rain = 0
KME1 241812Z 20018G23KT 30/18 A2983 RMK A01 T03010184  RH  050%=      5-min Rain = 0
KME1 241813Z 18015G21KT 30/18 A2984 RMK A01 T03010183  RH  049%=      5-min Rain = 0
KME1 241814Z 17014G20KT 30/19 A2984 RMK A01 T02990186  RH  051%=      5-min Rain = 0
KME1 241815Z 17016KT 30/19 A2984 RMK A01 T03000187  RH  051%=      5-min Rain = 0
KME1 241816Z 17013KT 30/19 A2983 RMK A01 T03000186  RH  051%=      5-min Rain = 0
KME1 241817Z 17016KT 30/19 A2984 RMK A01 T03000188  RH  051%=      5-min Rain = 0
KME1 241818Z 18013G18KT 30/19 A2983 RMK A01 T03030187  RH  050%=      5-min Rain = 0
KME1 241819Z 18012KT 31/19 A2983 RMK A01 T03080188  RH  049%=      5-min Rain = 0
KME1 241820Z 18014KT 31/19 A2983 RMK A01 T03110188  RH  048%=      5-min Rain = 0
KME1 241821Z 18016KT 31/19 A2983 RMK A01 T03110187  RH  048%=      5-min Rain = 0
KME1 241822Z 19014G19KT 31/19 A2983 RMK A01 T03090188  RH  048%=      5-min Rain = 0
KME1 241823Z 17014G20KT 31/19 A2983 RMK A01 T03120189  RH  048%=      5-min Rain = 0
KME1 241824Z 17016G22KT 32/19 A2983 RMK A01 T03150188  RH  047%=      5-min Rain = 0
KME1 241825Z 16015G20KT 32/19 A2983 RMK A01 T03160188  RH  047%=      5-min Rain = 0
KME1 241826Z 17016G21KT 32/19 A2983 RMK A01 T03170188  RH  046%=      5-min Rain = 0
KME1 241827Z 17013G19KT 31/19 A2984 RMK A01 T03140187  RH  047%=      5-min Rain = 0
KME1 241828Z 17015KT 31/19 A2983 RMK A01 T03100186  RH  048%=      5-min Rain = 0
KME1 241829Z 17014G19KT 31/19 A2983 RMK A01 T03060185  RH  048%=      5-min Rain = 0
KME1 241830Z 18015G20KT 30/18 A2983 RMK A01 T03040184  RH  049%=      5-min Rain = 0
KME1 241831Z 18016G21KT 30/18 A2983 RMK A01 T03020182  RH  049%=      5-min Rain = 0
KME1 241832Z 17019KT 30/18 A2983 RMK A01 T03030183  RH  049%=      5-min Rain = 0
KME1 241833Z 17017G22KT 30/18 A2983 RMK A01 T03030184  RH  049%=      5-min Rain = 0
KME1 241834Z 16015G20KT 31/19 A2983 RMK A01 T03050187  RH  049%=      5-min Rain = 0
KME1 241835Z 16015KT 31/19 A2983 RMK A01 T03070186  RH  048%=      5-min Rain = 0
KME1 241836Z 16018KT 31/19 A2983 RMK A01 T03060185  RH  048%=      5-min Rain = 0
KME1 241837Z 17017G22KT 30/19 A2983 RMK A01 T03040185  RH  049%=      5-min Rain = 0
KME1 241838Z 16019G27KT 30/18 A2983 RMK A01 T03030184  RH  049%=      5-min Rain = 0
KME1 241839Z 17017KT 30/18 A2983 RMK A01 T03030184  RH  049%=      5-min Rain = 0
KME1 241840Z 19015G20KT 30/18 A2982 RMK A01 T03010183  RH  049%=      5-min Rain = 0
KME1 241841Z 17015G20KT 30/19 A2983 RMK A01 T03000185  RH  050%=      5-min Rain = 0
KME1 241842Z 18013KT 30/19 A2982 RMK A01 T03040186  RH  049%=      5-min Rain = 0
KME1 241843Z 19013G18KT 31/19 A2982 RMK A01 T03070185  RH  048%=      5-min Rain = 0
KME1 241844Z 18013KT 31/19 A2982 RMK A01 T03070185  RH  048%=      5-min Rain = 0
KME1 241845Z 18015KT 31/19 A2982 RMK A01 T03060185  RH  049%=      5-min Rain = 0
KME1 241846Z 18016KT 30/19 A2982 RMK A01 T03040185  RH  049%=      5-min Rain = 0
KME1 241847Z 16016KT 30/19 A2982 RMK A01 T03030185  RH  049%=      5-min Rain = 0
KME1 241848Z 17014KT 30/18 A2982 RMK A01 T03030184  RH  049%=      5-min Rain = 0
KME1 241849Z 17016KT 30/18 A2982 RMK A01 T03030183  RH  049%=      5-min Rain = 0
KME1 241850Z 15015KT 31/18 A2982 RMK A01 T03050184  RH  049%=      5-min Rain = 0
KME1 241851Z 16019G24KT 31/18 A2982 RMK A01 T03070184  RH  048%=      5-min Rain = 0
KME1 241852Z 16018KT 30/18 A2982 RMK A01 T03040182  RH  048%=      5-min Rain = 0
KME1 241853Z 16016KT 30/18 A2982 RMK A01 T03020184  RH  049%=      5-min Rain = 0
KME1 241854Z 17015KT 30/18 A2982 RMK A01 T03040184  RH  049%=      5-min Rain = 0
KME1 241855Z 17012KT 31/19 A2982 RMK A01 T03060186  RH  049%=      5-min Rain = 0
KME1 241856Z 17014G19KT 31/19 A2982 RMK A01 T03100186  RH  048%=      5-min Rain = 0
KME1 241857Z 19017G22KT 31/19 A2982 RMK A01 T03110185  RH  047%=      5-min Rain = 0
KME1 241858Z 19012KT 31/18 A2981 RMK A01 T03070184  RH  048%=      5-min Rain = 0
KME1 241859Z 18012KT 31/19 A2981 RMK A01 T03070185  RH  048%=      5-min Rain = 0
KME1 241900Z 17017G22KT 31/19 A2981 RMK A01 T03110185  RH  047%=      5-min Rain = 0
KME1 241901Z 18016G21KT 31/19 A2981 RMK A01 T03130185  RH  047%=      5-min Rain = 0
KME1 241902Z 19015G22KT 31/18 A2981 RMK A01 T03130184  RH  046%=      5-min Rain = 0
KME1 241903Z 18013G20KT 31/19 A2981 RMK A01 T03120186  RH  047%=      5-min Rain = 0
KME1 241904Z 18018KT 32/19 A2981 RMK A01 T03170186  RH  046%=      5-min Rain = 0
KME1 241905Z 17018G23KT 32/18 A2981 RMK A01 T03170184  RH  045%=      5-min Rain = 0
KME1 241906Z 18013KT 31/19 A2981 RMK A01 T03140185  RH  046%=      5-min Rain = 0
KME1 241907Z 19014G20KT 31/19 A2981 RMK A01 T03140185  RH  046%=      5-min Rain = 0
KME1 241908Z 19017G22KT 31/18 A2981 RMK A01 T03120184  RH  046%=      5-min Rain = 0
KME1 241909Z 18013KT 31/18 A2981 RMK A01 T03060182  RH  048%=      5-min Rain = 0
KME1 241910Z 18012G19KT 31/19 A2981 RMK A01 T03050186  RH  049%=      5-min Rain = 0
KME1 241911Z 17018KT 31/18 A2981 RMK A01 T03120183  RH  046%=      5-min Rain = 0
KME1 241912Z 18016G21KT 31/18 A2981 RMK A01 T03130183  RH  046%=      5-min Rain = 0
KME1 241913Z 18016KT 31/18 A298 RMK A01 T03110183  RH  047%=      5-min Rain = 0
KME1 241914Z 19013G18KT 31/19 A2981 RMK A01 T03110185  RH  047%=      5-min Rain = 0
KME1 241915Z 19013KT 31/18 A298 RMK A01 T03120181  RH  046%=      5-min Rain = 0
KME1 241916Z 18012G17KT 31/18 A298 RMK A01 T03090182  RH  047%=      5-min Rain = 0
KME1 241917Z 18012G18KT 31/18 A298 RMK A01 T03080184  RH  047%=      5-min Rain = 0
KME1 241918Z 18017G22KT 31/18 A298 RMK A01 T03100182  RH  046%=      5-min Rain = 0
KME1 241919Z 19014KT 31/18 A298 RMK A01 T03110182  RH  046%=      5-min Rain = 0
KME1 241920Z 17012KT 31/19 A298 RMK A01 T03140185  RH  046%=      5-min Rain = 0
KME1 241921Z 18012KT 32/19 A298 RMK A01 T03190185  RH  045%=      5-min Rain = 0
KME1 241922Z 18011KT 32/19 A298 RMK A01 T03220186  RH  044%=      5-min Rain = 0
KME1 241923Z 18013G19KT 32/19 A298 RMK A01 T03240186  RH  044%=      5-min Rain = 0
KME1 241924Z 17016G22KT 32/19 A298 RMK A01 T03220185  RH  044%=      5-min Rain = 0
KME1 241925Z 17017KT 32/18 A298 RMK A01 T03190184  RH  045%=      5-min Rain = 0
KME1 241926Z 17014KT 32/18 A298 RMK A01 T03150183  RH  045%=      5-min Rain = 0
KME1 241927Z 19014KT 31/18 A298 RMK A01 T03130183  RH  046%=      5-min Rain = 0
KME1 241928Z 20014G19KT 31/18 A298 RMK A01 T03140183  RH  046%=      5-min Rain = 0
KME1 241929Z 20015KT 32/18 A298 RMK A01 T03150182  RH  045%=      5-min Rain = 0
KME1 241930Z 20018G23KT 31/18 A298 RMK A01 T03140181  RH  045%=      5-min Rain = 0
KME1 241931Z 19015KT 31/18 A298 RMK A01 T03120180  RH  045%=      5-min Rain = 0
KME1 241932Z 18012G18KT 31/18 A298 RMK A01 T03110180  RH  046%=      5-min Rain = 0
KME1 241933Z 19013G18KT 31/18 A298 RMK A01 T03110180  RH  046%=      5-min Rain = 0
KME1 241934Z 19013G18KT 31/18 A298 RMK A01 T03100180  RH  046%=      5-min Rain = 0
KME1 241935Z 18013G18KT 31/18 A2979 RMK A01 T03110182  RH  046%=      5-min Rain = 0
KME1 241936Z 17014KT 31/18 A2979 RMK A01 T03120184  RH  046%=      5-min Rain = 0
KME1 241937Z 18012KT 31/19 A2979 RMK A01 T03130185  RH  047%=      5-min Rain = 0
KME1 241938Z 18014G20KT 31/19 A2979 RMK A01 T03140185  RH  046%=      5-min Rain = 0
KME1 241939Z 18012KT 31/18 A2979 RMK A01 T03140184  RH  046%=      5-min Rain = 0
KME1 241940Z 18014KT 31/19 A2979 RMK A01 T03120185  RH  047%=      5-min Rain = 0
KME1 241941Z 19015KT 31/18 A2979 RMK A01 T03120184  RH  047%=      5-min Rain = 0
KME1 241942Z 19013KT 31/18 A2979 RMK A01 T03090183  RH  047%=      5-min Rain = 0
KME1 241943Z 19013KT 31/18 A2979 RMK A01 T03100183  RH  047%=      5-min Rain = 0
KME1 241944Z 19013KT 31/18 A2978 RMK A01 T03110183  RH  046%=      5-min Rain = 0
KME1 241945Z 19010G16KT 31/19 A2978 RMK A01 T03120186  RH  047%=      5-min Rain = 0
KME1 241946Z 18017KT 31/18 A2978 RMK A01 T03130184  RH  046%=      5-min Rain = 0
KME1 241947Z 18009G15KT 31/18 A2978 RMK A01 T03110184  RH  047%=      5-min Rain = 0
KME1 241948Z 18013KT 31/19 A2978 RMK A01 T03120185  RH  047%=      5-min Rain = 0
KME1 241949Z 16014KT 31/18 A2978 RMK A01 T03140183  RH  046%=      5-min Rain = 0
KME1 241950Z 16011KT 31/18 A2978 RMK A01 T03130182  RH  046%=      5-min Rain = 0
KME1 241951Z 18012KT 32/18 A2978 RMK A01 T03160181  RH  045%=      5-min Rain = 0
KME1 241952Z 18012G17KT 32/18 A2978 RMK A01 T03150181  RH  045%=      5-min Rain = 0
KME1 241953Z 17018KT 32/18 A2978 RMK A01 T03150181  RH  045%=      5-min Rain = 0
KME1 241954Z 17015KT 31/18 A2978 RMK A01 T03140183  RH  046%=      5-min Rain = 0
KME1 241955Z 17012G17KT 32/18 A2978 RMK A01 T03150183  RH  045%=      5-min Rain = 0
KME1 241956Z 18013G23KT 31/18 A2978 RMK A01 T03140180  RH  045%=      5-min Rain = 0
KME1 241957Z 18016KT 31/18 A2978 RMK A01 T03130179  RH  045%=      5-min Rain = 0
KME1 241958Z 19013KT 31/18 A2978 RMK A01 T03110179  RH  045%=      5-min Rain = 0
KME1 241959Z 18011KT 31/18 A2978 RMK A01 T03110179  RH  045%=      5-min Rain = 0
KME1 242000Z 18011G16KT 31/18 A2978 RMK A01 T03110179  RH  045%=      5-min Rain = 0
KME1 242001Z 19011KT 31/18 A2978 RMK A01 T03110176  RH  045%=      5-min Rain = 0
KME1 242002Z 18008KT 31/18 A2978 RMK A01 T03100178  RH  045%=      5-min Rain = 0
KME1 242003Z 18012G17KT 31/18 A2977 RMK A01 T03130180  RH  045%=      5-min Rain = 0
KME1 242004Z 17014KT 32/18 A2978 RMK A01 T03160180  RH  044%=      5-min Rain = 0
KME1 242005Z 17013KT 32/18 A2977 RMK A01 T03160179  RH  044%=      5-min Rain = 0
KME1 242006Z 17011KT 32/18 A2977 RMK A01 T03150179  RH  044%=      5-min Rain = 0
KME1 242007Z 17014KT 31/18 A2977 RMK A01 T03140180  RH  045%=      5-min Rain = 0
KME1 242008Z 16015KT 31/18 A2977 RMK A01 T03120181  RH  046%=      5-min Rain = 0
KME1 242009Z 18012KT 31/18 A2977 RMK A01 T03140181  RH  045%=      5-min Rain = 0
KME1 242010Z 18014KT 32/18 A2977 RMK A01 T03150181  RH  045%=      5-min Rain = 0
KME1 242011Z 16012KT 32/18 A2977 RMK A01 T03170180  RH  044%=      5-min Rain = 0
KME1 242012Z 16011KT 32/18 A2977 RMK A01 T03180181  RH  044%=      5-min Rain = 0
KME1 242013Z 19009KT 32/18 A2977 RMK A01 T03180182  RH  044%=      5-min Rain = 0
KME1 242014Z 18015G20KT 32/18 A2976 RMK A01 T03190181  RH  044%=      5-min Rain = 0
KME1 242015Z 18013KT 32/18 A2976 RMK A01 T03190182  RH  044%=      5-min Rain = 0
KME1 242016Z 18009G15KT 32/18 A2976 RMK A01 T03200183  RH  044%=      5-min Rain = 0
KME1 242017Z 16010KT 32/18 A2976 RMK A01 T03220184  RH  044%=      5-min Rain = 0
KME1 242018Z 16011KT 32/19 A2976 RMK A01 T03230185  RH  044%=      5-min Rain = 0
KME1 242019Z 17017G23KT 33/19 A2976 RMK A01 T03250185  RH  044%=      5-min Rain = 0
KME1 242020Z 17017KT 32/18 A2976 RMK A01 T03220182  RH  043%=      5-min Rain = 0
KME1 242021Z 17016KT 32/18 A2976 RMK A01 T03210183  RH  044%=      5-min Rain = 0
KME1 242022Z 15017KT 32/18 A2976 RMK A01 T03220182  RH  043%=      5-min Rain = 0
KME1 242023Z 17014KT 32/18 A2976 RMK A01 T03220181  RH  043%=      5-min Rain = 0
KME1 242024Z 17013KT 32/18 A2976 RMK A01 T03190181  RH  044%=      5-min Rain = 0
KME1 242025Z 17010G15KT 32/18 A2976 RMK A01 T03190183  RH  044%=      5-min Rain = 0
KME1 242026Z 18017G23KT 32/18 A2976 RMK A01 T03220181  RH  043%=      5-min Rain = 0
KME1 242027Z 16013KT 32/18 A2976 RMK A01 T03210179  RH  043%=      5-min Rain = 0
KME1 242028Z 17012KT 32/18 A2975 RMK A01 T03180180  RH  044%=      5-min Rain = 0
KME1 242029Z 19018G23KT 32/18 A2975 RMK A01 T03200181  RH  044%=      5-min Rain = 0
KME1 242030Z 18018KT 32/18 A2975 RMK A01 T03200181  RH  044%=      5-min Rain = 0
KME1 242031Z 19017KT 32/18 A2975 RMK A01 T03180179  RH  043%=      5-min Rain = 0
KME1 242032Z 18016KT 32/18 A2975 RMK A01 T03150180  RH  044%=      5-min Rain = 0
KME1 242033Z 18014KT 32/18 A2975 RMK A01 T03160180  RH  044%=      5-min Rain = 0
KME1 242034Z 20011KT 32/18 A2975 RMK A01 T03180181  RH  044%=      5-min Rain = 0
KME1 242035Z 20011KT 32/18 A2975 RMK A01 T03210179  RH  043%=      5-min Rain = 0
KME1 242036Z 18012KT 32/18 A2975 RMK A01 T03220179  RH  043%=      5-min Rain = 0
KME1 242037Z 19011G17KT 32/18 A2975 RMK A01 T03170180  RH  044%=      5-min Rain = 0
KME1 242038Z 19016KT 31/18 A2975 RMK A01 T03140182  RH  046%=      5-min Rain = 0
KME1 242039Z 17014KT 31/18 A2975 RMK A01 T03130180  RH  045%=      5-min Rain = 0
KME1 242040Z 17012KT 31/18 A2975 RMK A01 T03140179  RH  045%=      5-min Rain = 0
KME1 242041Z 18011KT 32/18 A2975 RMK A01 T03170178  RH  044%=      5-min Rain = 0
KME1 242042Z 18013KT 32/18 A2975 RMK A01 T03180178  RH  043%=      5-min Rain = 0
KME1 242043Z 18013KT 32/18 A2975 RMK A01 T03170175  RH  043%=      5-min Rain = 0
KME1 242044Z 17011KT 31/18 A2975 RMK A01 T03140176  RH  044%=      5-min Rain = 0
KME1 242045Z 17014KT 32/18 A2974 RMK A01 T03170181  RH  044%=      5-min Rain = 0
KME1 242046Z 16013KT 32/18 A2974 RMK A01 T03210182  RH  044%=      5-min Rain = 0
KME1 242047Z 16010KT 32/18 A2974 RMK A01 T03230182  RH  043%=      5-min Rain = 0
KME1 242048Z 17013KT 32/18 A2974 RMK A01 T03240181  RH  043%=      5-min Rain = 0
KME1 242049Z 16014G19KT 33/18 A2974 RMK A01 T03250179  RH  042%=      5-min Rain = 0
KME1 242050Z 17015KT 32/18 A2974 RMK A01 T03220181  RH  043%=      5-min Rain = 0
KME1 242051Z 16012KT 32/18 A2974 RMK A01 T03220180  RH  043%=      5-min Rain = 0
KME1 242052Z 16010KT 32/18 A2974 RMK A01 T03200178  RH  043%=      5-min Rain = 0
KME1 242053Z 15017G22KT 32/18 A2973 RMK A01 T03170178  RH  044%=      5-min Rain = 0
KME1 242054Z 16016G21KT 31/18 A2973 RMK A01 T03130176  RH  044%=      5-min Rain = 0
KME1 242055Z 18011G17KT 31/18 A2974 RMK A01 T03120179  RH  045%=      5-min Rain = 0
KME1 242056Z 18013G18KT 32/18 A2973 RMK A01 T03160179  RH  044%=      5-min Rain = 0
KME1 242057Z 18015G20KT 32/18 A2973 RMK A01 T03170179  RH  044%=      5-min Rain = 0
KME1 242058Z 19015KT 32/18 A2973 RMK A01 T03170178  RH  044%=      5-min Rain = 0
KME1 242059Z 19013KT 32/18 A2973 RMK A01 T03160177  RH  044%=      5-min Rain = 0
KME1 242100Z 19014G19KT 32/18 A2973 RMK A01 T03150176  RH  044%=      5-min Rain = 0
KME1 242101Z 18013KT 31/18 A2973 RMK A01 T03130175  RH  044%=      5-min Rain = 0
KME1 242102Z 17011KT 31/18 A2973 RMK A01 T03110175  RH  044%=      5-min Rain = 0
KME1 242103Z 18011KT 31/18 A2973 RMK A01 T03110176  RH  044%=      5-min Rain = 0
KME1 242104Z 17012KT 31/18 A2973 RMK A01 T03120177  RH  044%=      5-min Rain = 0
KME1 242105Z 19011KT 32/18 A2973 RMK A01 T03150178  RH  044%=      5-min Rain = 0
KME1 242106Z 19011KT 32/18 A2973 RMK A01 T03180176  RH  043%=      5-min Rain = 0
KME1 242107Z 18016KT 32/18 A2972 RMK A01 T03190178  RH  043%=      5-min Rain = 0
KME1 242108Z 18011KT 32/18 A2972 RMK A01 T03190179  RH  043%=      5-min Rain = 0
KME1 242109Z 19014G21KT 32/18 A2972 RMK A01 T03210181  RH  044%=      5-min Rain = 0
KME1 242110Z 19017KT 32/18 A2972 RMK A01 T03220177  RH  042%=      5-min Rain = 0
KME1 242111Z 20014KT 32/18 A2972 RMK A01 T03190178  RH  043%=      5-min Rain = 0
KME1 242112Z 19016KT 32/18 A2972 RMK A01 T03180177  RH  043%=      5-min Rain = 0
KME1 242113Z 19013G18KT 32/18 A2972 RMK A01 T03170177  RH  043%=      5-min Rain = 0
KME1 242114Z 20014KT 32/18 A2973 RMK A01 T03160176  RH  043%=      5-min Rain = 0
KME1 242115Z 20013KT 31/18 A2973 RMK A01 T03130175  RH  044%=      5-min Rain = 0
KME1 242116Z 19013G18KT 31/18 A2973 RMK A01 T03110175  RH  044%=      5-min Rain = 0
KME1 242117Z 18013G18KT 31/18 A2973 RMK A01 T03090175  RH  044%=      5-min Rain = 0
KME1 242118Z 18011KT 31/17 A2973 RMK A01 T03080174  RH  045%=      5-min Rain = 0
KME1 242119Z 18010KT 31/18 A2973 RMK A01 T03080175  RH  045%=      5-min Rain = 0
KME1 242120Z 18015KT 31/18 A2974 RMK A01 T03080177  RH  046%=      5-min Rain = 0
KME1 242121Z 19015KT 31/18 A2974 RMK A01 T03060176  RH  046%=      5-min Rain = 0
KME1 242122Z 18014G20KT 30/18 A2974 RMK A01 T03040176  RH  046%=      5-min Rain = 0
KME1 242123Z 18014KT 30/18 A2974 RMK A01 T03040176  RH  046%=      5-min Rain = 0
KME1 242124Z 19015KT 30/18 A2974 RMK A01 T03030176  RH  047%=      5-min Rain = 0
KME1 242125Z 19013KT 30/18 A2974 RMK A01 T03030176  RH  047%=      5-min Rain = 0
KME1 242126Z 18013KT 30/18 A2974 RMK A01 T03020176  RH  047%=      5-min Rain = 0
KME1 242127Z 18012KT 30/18 A2974 RMK A01 T03020176  RH  047%=      5-min Rain = 0
KME1 242128Z 19011KT 30/18 A2974 RMK A01 T03020176  RH  047%=      5-min Rain = 0
KME1 242129Z 18012KT 30/18 A2974 RMK A01 T03020177  RH  047%=      5-min Rain = 0
KME1 242130Z 18008KT 30/18 A2973 RMK A01 T03010177  RH  047%=      5-min Rain = 0
KME1 242131Z 17010KT 30/18 A2973 RMK A01 T03010178  RH  048%=      5-min Rain = 0
KME1 242132Z 18011KT 30/18 A2973 RMK A01 T03010177  RH  047%=      5-min Rain = 0
KME1 242133Z 17013KT 30/18 A2973 RMK A01 T03010177  RH  048%=      5-min Rain = 0
KME1 242134Z 18010KT 30/18 A2973 RMK A01 T02990177  RH  048%=      5-min Rain = 0
KME1 242135Z 18013KT 30/18 A2973 RMK A01 T02990176  RH  048%=      5-min Rain = 0
KME1 242136Z 18014KT 30/18 A2973 RMK A01 T02980176  RH  048%=      5-min Rain = 0
KME1 242137Z 18013KT 30/18 A2973 RMK A01 T02970177  RH  048%=      5-min Rain = 0
KME1 242138Z 16012G17KT 30/18 A2973 RMK A01 T02960177  RH  049%=      5-min Rain = 0
KME1 242139Z 17012KT 30/18 A2973 RMK A01 T02960177  RH  049%=      5-min Rain = 0
KME1 242140Z 16015KT 30/18 A2973 RMK A01 T02960177  RH  049%=      5-min Rain = 0
KME1 242141Z 17017KT 30/18 A2973 RMK A01 T02960177  RH  049%=      5-min Rain = 0
KME1 242142Z 16015KT 30/18 A2973 RMK A01 T02950177  RH  049%=      5-min Rain = 0
KME1 242143Z 17015G20KT 30/18 A2973 RMK A01 T02950177  RH  049%=      5-min Rain = 0
KME1 242144Z 17015G21KT 29/18 A2973 RMK A01 T02940176  RH  049%=      5-min Rain = 0
KME1 242145Z 17013G18KT 29/18 A2972 RMK A01 T02940176  RH  049%=      5-min Rain = 0
KME1 242146Z 17013KT 29/18 A2972 RMK A01 T02940176  RH  049%=      5-min Rain = 0
KME1 242147Z 17012KT 29/18 A2972 RMK A01 T02930176  RH  049%=      5-min Rain = 0
KME1 242148Z 18014KT 29/18 A2972 RMK A01 T02920176  RH  050%=      5-min Rain = 0
KME1 242149Z 18012KT 29/18 A2972 RMK A01 T02920177  RH  050%=      5-min Rain = 0
KME1 242150Z 18014KT 29/18 A2972 RMK A01 T02900178  RH  051%=      5-min Rain = 0
KME1 242151Z 17012KT 29/18 A2972 RMK A01 T02890181  RH  052%=      5-min Rain = 0
KME1 242152Z 18012KT 29/19 A2972 RMK A01 T02860185  RH  054%=      5-min Rain = 0
KME1 242153Z 18011KT 28/19 A2972 RMK A01 T02820190  RH  057%=      5-min Rain = 0
KME1 242154Z 18011KT 28/19 A2972 RMK A01 T02770191  RH  059%=      5-min Rain = 0
KME1 242155Z 20009KT 27/19 A2972 RMK A01 T02730193  RH  062%=      5-min Rain = 0
KME1 242156Z 21010KT 27/20 A2973 RMK A01 T02680197  RH  065%=      5-min Rain = 0
KME1 242157Z 21009KT 26/20 A2973 RMK A01 T02630201  RH  069%=      5-min Rain = 0
KME1 242158Z 20008KT 26/20 A2973 RMK A01 T02570202  RH  072%=      5-min Rain = 0
KME1 242159Z 21008KT 25/20 A2973 RMK A01 T02530204  RH  074%=      5-min Rain = 0
KME1 242200Z 21007KT 25/20 A2973 RMK A01 T02510203  RH  075%=      5-min Rain = 0
KME1 242201Z 22006KT 25/20 A2973 RMK A01 T02490204  RH  076%=      5-min Rain = 0
KME1 242202Z 21005KT 25/21 A2973 RMK A01 T02480207  RH  078%=      5-min Rain = 0
KME1 242203Z 20004KT 25/21 A2973 RMK A01 T02470207  RH  078%=      5-min Rain = 0
KME1 242204Z 20003KT 25/21 A2973 RMK A01 T02470208  RH  079%=      5-min Rain = 0
KME1 242205Z 20003KT 25/21 A2973 RMK A01 T02460208  RH  079%=      5-min Rain = 0
KME1 242206Z 21003KT 25/21 A2973 RMK A01 T02460208  RH  079%=      5-min Rain = 0
KME1 242207Z 22005KT 25/21 A2973 RMK A01 T02460208  RH  079%=      5-min Rain = 0
KME1 242208Z 21005KT 25/21 A2973 RMK A01 T02460207  RH  079%=      5-min Rain = 0
KME1 242209Z 20005KT 25/21 A2973 RMK A01 T02470207  RH  078%=      5-min Rain = 0
KME1 242210Z 20005KT 25/21 A2973 RMK A01 T02480205  RH  077%=      5-min Rain = 0
KME1 242211Z 20005KT 25/20 A2972 RMK A01 T02490204  RH  076%=      5-min Rain = 0
KME1 242212Z 20004KT 25/20 A2972 RMK A01 T02500204  RH  076%=      5-min Rain = 0
KME1 242213Z 20003KT 25/21 A2972 RMK A01 T02510206  RH  076%=      5-min Rain = 0
KME1 242214Z 20004KT 25/21 A2972 RMK A01 T02510206  RH  076%=      5-min Rain = 0
KME1 242215Z 20004KT 25/21 A2972 RMK A01 T02510205  RH  076%=      5-min Rain = 0
KME1 242216Z 20003KT 25/21 A2972 RMK A01 T02510205  RH  075%=      5-min Rain = 0
KME1 242217Z 20003KT 25/21 A2972 RMK A01 T02520205  RH  075%=      5-min Rain = 0
KME1 242218Z 22003KT 25/21 A2971 RMK A01 T02520206  RH  075%=      5-min Rain = 0
KME1 242219Z 22004KT 25/21 A2971 RMK A01 T02520205  RH  075%=      5-min Rain = 0
KME1 242220Z 22003KT 25/20 A2971 RMK A01 T02520204  RH  075%=      5-min Rain = 0
KME1 242221Z 23002KT 25/21 A2971 RMK A01 T02530206  RH  075%=      5-min Rain = 0
KME1 242222Z 24003KT 25/21 A2971 RMK A01 T02530207  RH  076%=      5-min Rain = 0
KME1 242223Z 24003KT 25/21 A297 RMK A01 T02530206  RH  075%=      5-min Rain = 0
KME1 242224Z 25002KT 25/21 A297 RMK A01 T02530207  RH  076%=      5-min Rain = 0
KME1 242225Z 24001KT 25/21 A297 RMK A01 T02540206  RH  075%=      5-min Rain = 0
KME1 242226Z 13000KT 25/21 A297 RMK A01 T02540205  RH  074%=      5-min Rain = 0
KME1 242227Z 11002KT 25/21 A2971 RMK A01 T02540206  RH  075%=      5-min Rain = 0
KME1 242228Z 10003KT 25/21 A2971 RMK A01 T02540209  RH  076%=      5-min Rain = 0
KME1 242229Z 09003KT 25/21 A2971 RMK A01 T02540211  RH  077%=      5-min Rain = 0
KME1 242230Z 09003KT 25/21 A2971 RMK A01 T02540210  RH  077%=      5-min Rain = 0
KME1 242231Z 10003KT 25/21 A2971 RMK A01 T02530209  RH  076%=      5-min Rain = 0
KME1 242232Z 10003KT 25/21 A2971 RMK A01 T02530208  RH  076%=      5-min Rain = 0
KME1 242233Z 13002KT 25/20 A2971 RMK A01 T02530201  RH  073%=      5-min Rain = 0
KME1 242234Z 12001KT 25/20 A2972 RMK A01 T02540199  RH  072%=      5-min Rain = 0
KME1 242235Z 17000KT 26/20 A2972 RMK A01 T02560203  RH  072%=      5-min Rain = 0
KME1 242236Z 16004KT 26/20 A2972 RMK A01 T02560201  RH  071%=      5-min Rain = 0
KME1 242237Z 18003KT 26/20 A2971 RMK A01 T02570200  RH  071%=      5-min Rain = 0
KME1 242238Z 21003KT 26/20 A2971 RMK A01 T02580201  RH  071%=      5-min Rain = 0
KME1 242239Z 20003KT 26/20 A2971 RMK A01 T02580202  RH  071%=      5-min Rain = 0
KME1 242240Z 20004KT 26/20 A2971 RMK A01 T02580202  RH  071%=      5-min Rain = 0
KME1 242241Z 19005KT 26/20 A2971 RMK A01 T02580201  RH  071%=      5-min Rain = 0
KME1 242242Z 18004KT 26/20 A2971 RMK A01 T02580200  RH  070%=      5-min Rain = 0
KME1 242243Z 18003KT 26/20 A2971 RMK A01 T02590201  RH  070%=      5-min Rain = 0
KME1 242244Z 18004KT 26/20 A297 RMK A01 T02590200  RH  070%=      5-min Rain = 0
KME1 242245Z 18005KT 26/20 A297 RMK A01 T02590198  RH  069%=      5-min Rain = 0
KME1 242246Z 18004KT 26/20 A297 RMK A01 T02590197  RH  069%=      5-min Rain = 0
KME1 242247Z 19004KT 26/20 A297 RMK A01 T02600199  RH  069%=      5-min Rain = 0
KME1 242248Z 18007KT 26/20 A297 RMK A01 T02600198  RH  068%=      5-min Rain = 0
KME1 242249Z 18007KT 26/20 A2971 RMK A01 T02600195  RH  067%=      5-min Rain = 0
KME1 242250Z 19007KT 26/20 A2971 RMK A01 T02620195  RH  067%=      5-min Rain = 0
KME1 242251Z 19008KT 26/20 A2971 RMK A01 T02630195  RH  066%=      5-min Rain = 0
KME1 242252Z 19009KT 26/20 A2972 RMK A01 T02630195  RH  066%=      5-min Rain = 0
KME1 242253Z 18009KT 26/19 A2972 RMK A01 T02630194  RH  065%=      5-min Rain = 0
KME1 242254Z 19007KT 26/20 A2972 RMK A01 T02640195  RH  066%=      5-min Rain = 0
KME1 242255Z 19009KT 26/19 A2973 RMK A01 T02640194  RH  065%=      5-min Rain = 0
KME1 242256Z 22018G29KT 27/19 A2975 RMK A01 T02650194  RH  065%=      5-min Rain = 0
KME1 242257Z 23029KT 26/17 A2976 RMK A01 T02560174  RH  060%=      5-min Rain = 0
KME1 242258Z 24029G41KT 24/16 A2976 RMK A01 T02350162  RH  063%=      5-min Rain = 0
KME1 242259Z 23026G33KT 22/15 A2976 RMK A01 T02190153  RH  066%=      5-min Rain = 0
KME1 242300Z 24029G37KT 21/15 A2976 RMK A01 T02090151  RH  069%=      5-min Rain = 0
KME1 242301Z 23029KT 20/15 A2977 RMK A01 T02020150  RH  072%=      5-min Rain = 0
KME1 242302Z 24029G34KT 20/15 A2977 RMK A01 T01980148  RH  073%=      5-min Rain = 0
KME1 242303Z 24025G32KT 20/15 A2978 RMK A01 T01950148  RH  074%=      5-min Rain = 0
KME1 242304Z 24024G34KT 19/15 A2978 RMK A01 T01930149  RH  076%=      5-min Rain = 0
KME1 242305Z 25027G36KT 19/15 A2978 RMK A01 T01900151  RH  078%=      5-min Rain = 0
KME1 242306Z 25030G36KT 19/15 A2978 RMK A01 T01850150  RH  080%=      5-min Rain = 0
KME1 242307Z 25029G39KT 18/15 A2979 RMK A01 T01820153  RH  084%=      5-min Rain = 0
KME1 242308Z 25029G40KT 18/16 A2978 RMK A01 T01790158  RH  088%=      5-min Rain = 0.01
KME1 242309Z 25023G30KT 18/16 A2978 RMK A01 T01760162  RH  091%=      5-min Rain = 0
KME1 242310Z 25026G32KT 17/17 A2977 RMK A01 T01740165  RH  094%=      5-min Rain = 0.01
KME1 242311Z 25032G41KT 17/17 A2976 RMK A01 T01720166  RH  096%=      5-min Rain = 0.01
KME1 242312Z 25029G36KT 17/17 A2976 RMK A01 T01700165  RH  097%=      5-min Rain = 0.01
KME1 242313Z 24030G40KT 17/17 A2975 RMK A01 T01690166  RH  098%=      5-min Rain = 0.01
KME1 242314Z 25032G39KT 17/17 A2975 RMK A01 T01670166  RH  100%=      5-min Rain = 0.02
KME1 242315Z 24026G35KT 16/16 A2976 RMK A01 T01640164  RH  100%=      5-min Rain = 0.01
KME1 242316Z 24027G33KT 16/16 A2976 RMK A01 T01620162  RH  100%=      5-min Rain = 0.02
KME1 242317Z 24026G34KT 16/16 A2976 RMK A01 T01610161  RH  100%=      5-min Rain = 0.02
KME1 242318Z 24026G36KT 16/16 A2976 RMK A01 T01600160  RH  100%=      5-min Rain = 0.02
KME1 242319Z 23030G38KT 16/16 A2977 RMK A01 T01590159  RH  100%=      5-min Rain = 0.03
KME1 242320Z 24025G30KT 16/16 A2978 RMK A01 T01590159  RH  100%=      5-min Rain = 0.03
KME1 242321Z 24024G31KT 16/16 A2978 RMK A01 T01580158  RH  100%=      5-min Rain = 0.03
KME1 242322Z 24022KT 16/16 A2978 RMK A01 T01580158  RH  100%=      5-min Rain = 0.03
KME1 242323Z 24022G27KT 16/16 A2978 RMK A01 T01570157  RH  100%=      5-min Rain = 0.02
KME1 242324Z 24023G30KT 16/16 A2978 RMK A01 T01570157  RH  100%=      5-min Rain = 0.03
KME1 242325Z 24023KT 16/16 A2979 RMK A01 T01570157  RH  100%=      5-min Rain = 0.02
KME1 242326Z 23018G24KT 16/16 A2979 RMK A01 T01580158  RH  100%=      5-min Rain = 0.02
KME1 242327Z 23019G25KT 16/16 A2979 RMK A01 T01580158  RH  100%=      5-min Rain = 0.01
KME1 242328Z 24022G29KT 16/16 A2979 RMK A01 T01580158  RH  100%=      5-min Rain = 0.01
KME1 242329Z 24022G34KT 16/16 A2979 RMK A01 T01610161  RH  100%=      5-min Rain = 0.01
KME1 242330Z 24022G31KT 16/16 A2979 RMK A01 T01630160  RH  098%=      5-min Rain = 0.01
KME1 242331Z 23021G30KT 17/16 A298 RMK A01 T01650155  RH  094%=      5-min Rain = 0.01
KME1 242332Z 23025G30KT 17/15 A298 RMK A01 T01670150  RH  090%=      5-min Rain = 0.01
KME1 242333Z 23020G27KT 17/15 A298 RMK A01 T01690147  RH  087%=      5-min Rain = 0
KME1 242334Z 24020KT 17/15 A298 RMK A01 T01700147  RH  087%=      5-min Rain = 0.01
KME1 242335Z 23023G29KT 17/15 A298 RMK A01 T01700146  RH  086%=      5-min Rain = 0.01
KME1 242336Z 24023G33KT 17/15 A298 RMK A01 T01700145  RH  085%=      5-min Rain = 0
KME1 242337Z 24023KT 17/15 A298 RMK A01 T01710145  RH  085%=      5-min Rain = 0
KME1 242338Z 25022KT 17/14 A298 RMK A01 T01710143  RH  083%=      5-min Rain = 0.01
KME1 242339Z 25026G32KT 17/14 A298 RMK A01 T01720141  RH  082%=      5-min Rain = 0
KME1 242340Z 25021G27KT 17/14 A2979 RMK A01 T01740141  RH  081%=      5-min Rain = 0
KME1 242341Z 25022KT 17/14 A2979 RMK A01 T01740142  RH  081%=      5-min Rain = 0.01
KME1 242342Z 25019G26KT 17/14 A2979 RMK A01 T01740144  RH  082%=      5-min Rain = 0.01
KME1 242343Z 25021KT 17/14 A2979 RMK A01 T01730142  RH  082%=      5-min Rain = 0
KME1 242344Z 26018G25KT 17/14 A2979 RMK A01 T01730143  RH  082%=      5-min Rain = 0.01
KME1 242345Z 25020G25KT 17/14 A2979 RMK A01 T01730144  RH  083%=      5-min Rain = 0
KME1 242346Z 26018KT 17/14 A2978 RMK A01 T01730142  RH  082%=      5-min Rain = 0
KME1 242347Z 26019G24KT 17/14 A2978 RMK A01 T01720143  RH  083%=      5-min Rain = 0.01
KME1 242348Z 26019G29KT 17/14 A2978 RMK A01 T01720144  RH  083%=      5-min Rain = 0
KME1 242349Z 26021G27KT 17/14 A2978 RMK A01 T01720143  RH  083%=      5-min Rain = 0
KME1 242350Z 26021G27KT 17/14 A2978 RMK A01 T01720143  RH  083%=      5-min Rain = 0
KME1 242351Z 25021G28KT 17/15 A2978 RMK A01 T01720145  RH  084%=      5-min Rain = 0
KME1 242352Z 26022G27KT 17/14 A2978 RMK A01 T01720144  RH  083%=      5-min Rain = 0
KME1 242353Z 25021G26KT 17/15 A2978 RMK A01 T01730145  RH  084%=      5-min Rain = 0
KME1 242354Z 25020G29KT 17/15 A2978 RMK A01 T01720145  RH  084%=      5-min Rain = 0.01
KME1 242355Z 25021G26KT 17/14 A2979 RMK A01 T01730144  RH  083%=      5-min Rain = 0
KME1 242356Z 26015KT 17/15 A2979 RMK A01 T01730146  RH  084%=      5-min Rain = 0
KME1 242357Z 25018G23KT 17/15 A2979 RMK A01 T01720145  RH  084%=      5-min Rain = 0
KME1 242358Z 25016G21KT 17/14 A2979 RMK A01 T01720144  RH  084%=      5-min Rain = 0
KME1 242359Z 25014G19KT 17/15 A2979 RMK A01 T01720145  RH  084%=      5-min Rain = 0
KME1 250000Z 25019KT 17/15 A2979 RMK A01 T01720145  RH  084%=      5-min Rain = 0
KME1 250001Z 25019G24KT 17/15 A2979 RMK A01 T01720146  RH  085%=      5-min Rain = 0
KME1 250002Z 25018G25KT 17/15 A2979 RMK A01 T01700148  RH  087%=      5-min Rain = 0.01
KME1 250003Z 25019G25KT 17/15 A2979 RMK A01 T01690148  RH  087%=      5-min Rain = 0
KME1 250004Z 25017G23KT 17/15 A2979 RMK A01 T01680150  RH  089%=      5-min Rain = 0
KME1 250005Z 25017G23KT 17/15 A2979 RMK A01 T01660151  RH  091%=      5-min Rain = 0
KME1 250006Z 25017G22KT 17/15 A2979 RMK A01 T01650153  RH  092%=      5-min Rain = 0
KME1 250007Z 24021G27KT 16/15 A2979 RMK A01 T01640153  RH  093%=      5-min Rain = 0.01
KME1 250008Z 24020G25KT 16/15 A2979 RMK A01 T01630153  RH  093%=      5-min Rain = 0
KME1 250009Z 25020G26KT 16/15 A2979 RMK A01 T01630153  RH  094%=      5-min Rain = 0
KME1 250010Z 24019G26KT 16/15 A2979 RMK A01 T01620153  RH  094%=      5-min Rain = 0
KME1 250011Z 25018KT 16/15 A2979 RMK A01 T01620152  RH  094%=      5-min Rain = 0.01
KME1 250012Z 25018KT 16/15 A2979 RMK A01 T01620152  RH  094%=      5-min Rain = 0
KME1 250013Z 25020G26KT 16/15 A2979 RMK A01 T01620151  RH  094%=      5-min Rain = 0
KME1 250014Z 25019G24KT 16/15 A2979 RMK A01 T01620150  RH  093%=      5-min Rain = 0.01
KME1 250015Z 25017G22KT 16/15 A2979 RMK A01 T01620150  RH  093%=      5-min Rain = 0
KME1 250016Z 25018G23KT 16/15 A2979 RMK A01 T01620149  RH  092%=      5-min Rain = 0
KME1 250017Z 25016G22KT 16/15 A2979 RMK A01 T01620148  RH  091%=      5-min Rain = 0
KME1 250018Z 25013G18KT 16/15 A2979 RMK A01 T01630148  RH  091%=      5-min Rain = 0
KME1 250019Z 25018G23KT 16/15 A2979 RMK A01 T01630148  RH  091%=      5-min Rain = 0
KME1 250020Z 25013KT 16/15 A2979 RMK A01 T01630148  RH  091%=      5-min Rain = 0
KME1 250021Z 25014KT 16/15 A2978 RMK A01 T01630150  RH  092%=      5-min Rain = 0.01
KME1 250022Z 25014KT 16/15 A2978 RMK A01 T01630150  RH  092%=      5-min Rain = 0
KME1 250023Z 26013KT 16/15 A2978 RMK A01 T01630149  RH  092%=      5-min Rain = 0
KME1 250024Z 26013G18KT 16/15 A2978 RMK A01 T01620147  RH  090%=      5-min Rain = 0
KME1 250025Z 26012KT 16/15 A2978 RMK A01 T01630147  RH  090%=      5-min Rain = 0
KME1 250026Z 26013KT 16/15 A2978 RMK A01 T01630147  RH  090%=      5-min Rain = 0
KME1 250027Z 26013KT 16/14 A2977 RMK A01 T01630144  RH  089%=      5-min Rain = 0
KME1 250028Z 25011KT 16/15 A2978 RMK A01 T01630145  RH  089%=      5-min Rain = 0.01
KME1 250029Z 25010KT 16/15 A2978 RMK A01 T01630148  RH  091%=      5-min Rain = 0
KME1 250030Z 25010KT 16/15 A2978 RMK A01 T01630149  RH  091%=      5-min Rain = 0
KME1 250031Z 26008KT 16/15 A2977 RMK A01 T01630150  RH  092%=      5-min Rain = 0
KME1 250032Z 26009KT 16/15 A2977 RMK A01 T01620149  RH  092%=      5-min Rain = 0
KME1 250033Z 27011KT 16/15 A2977 RMK A01 T01630148  RH  091%=      5-min Rain = 0
KME1 250034Z 28009KT 16/15 A2976 RMK A01 T01630146  RH  090%=      5-min Rain = 0
KME1 250035Z 27009KT 16/15 A2976 RMK A01 T01630147  RH  090%=      5-min Rain = 0
KME1 250036Z 28009KT 16/15 A2976 RMK A01 T01630146  RH  090%=      5-min Rain = 0
KME1 250037Z 29009KT 16/15 A2976 RMK A01 T01630146  RH  089%=      5-min Rain = 0
KME1 250038Z 28009KT 16/15 A2976 RMK A01 T01630145  RH  089%=      5-min Rain = 0.01
KME1 250039Z 29009KT 16/15 A2975 RMK A01 T01630145  RH  089%=      5-min Rain = 0
KME1 250040Z 29008KT 16/15 A2976 RMK A01 T01630147  RH  090%=      5-min Rain = 0
KME1 250041Z 28008KT 16/15 A2976 RMK A01 T01630147  RH  090%=      5-min Rain = 0
KME1 250042Z 27006KT 16/15 A2976 RMK A01 T01630149  RH  091%=      5-min Rain = 0
KME1 250043Z 26007KT 16/15 A2977 RMK A01 T01630151  RH  093%=      5-min Rain = 0
KME1 250044Z 24007KT 16/15 A2977 RMK A01 T01620151  RH  093%=      5-min Rain = 0
KME1 250045Z 22005KT 16/15 A2978 RMK A01 T01630151  RH  093%=      5-min Rain = 0
KME1 250046Z 22005KT 16/15 A2978 RMK A01 T01620152  RH  094%=      5-min Rain = 0
KME1 250047Z 21005KT 16/15 A2978 RMK A01 T01620152  RH  094%=      5-min Rain = 0
KME1 250048Z 24005KT 16/15 A2977 RMK A01 T01620151  RH  094%=      5-min Rain = 0
KME1 250049Z 24003KT 16/15 A2977 RMK A01 T01620152  RH  094%=      5-min Rain = 0
KME1 250050Z 25004KT 16/15 A2976 RMK A01 T01610153  RH  095%=      5-min Rain = 0
KME1 250051Z 27004KT 16/15 A2976 RMK A01 T01610152  RH  094%=      5-min Rain = 0.01
KME1 250052Z 27006KT 16/15 A2976 RMK A01 T01610152  RH  094%=      5-min Rain = 0
KME1 250053Z 28006KT 16/15 A2976 RMK A01 T01610151  RH  094%=      5-min Rain = 0
KME1 250054Z 27008KT 16/15 A2976 RMK A01 T01620152  RH  094%=      5-min Rain = 0
KME1 250055Z 26009KT 16/15 A2976 RMK A01 T01610152  RH  094%=      5-min Rain = 0
KME1 250056Z 26009KT 16/15 A2976 RMK A01 T01620151  RH  094%=      5-min Rain = 0
KME1 250057Z 25009KT 16/15 A2976 RMK A01 T01620150  RH  093%=      5-min Rain = 0
KME1 250058Z 25010KT 16/15 A2976 RMK A01 T01620153  RH  094%=      5-min Rain = 0
KME1 250059Z 25009KT 16/16 A2976 RMK A01 T01620155  RH  096%=      5-min Rain = 0
KME1 250100Z 25010KT 16/16 A2976 RMK A01 T01620157  RH  097%=      5-min Rain = 0
KME1 250101Z 25010KT 16/16 A2975 RMK A01 T01610157  RH  097%=      5-min Rain = 0
KME1 250102Z 25011KT 16/16 A2975 RMK A01 T01610156  RH  097%=      5-min Rain = 0
KME1 250103Z 25012KT 16/16 A2975 RMK A01 T01610155  RH  096%=      5-min Rain = 0
KME1 250104Z 25011KT 16/15 A2975 RMK A01 T01610153  RH  095%=      5-min Rain = 0
KME1 250105Z 26010KT 16/15 A2974 RMK A01 T01610153  RH  095%=      5-min Rain = 0
KME1 250106Z 25009KT 16/15 A2974 RMK A01 T01610153  RH  095%=      5-min Rain = 0
KME1 250107Z 25011KT 16/15 A2974 RMK A01 T01620152  RH  094%=      5-min Rain = 0
KME1 250108Z 25010KT 16/15 A2974 RMK A01 T01620152  RH  094%=      5-min Rain = 0
KME1 250109Z 25010KT 16/15 A2974 RMK A01 T01620151  RH  093%=      5-min Rain = 0
KME1 250110Z 25007KT 16/15 A2973 RMK A01 T01620150  RH  093%=      5-min Rain = 0
KME1 250111Z 25007KT 16/15 A2973 RMK A01 T01620152  RH  094%=      5-min Rain = 0
KME1 250112Z 25007KT 16/15 A2973 RMK A01 T01620150  RH  092%=      5-min Rain = 0
KME1 250113Z 25005KT 16/15 A2973 RMK A01 T01620150  RH  093%=      5-min Rain = 0
KME1 250114Z 25007KT 16/15 A2973 RMK A01 T01620150  RH  092%=      5-min Rain = 0
KME1 250115Z 24009KT 16/15 A2973 RMK A01 T01620150  RH  092%=      5-min Rain = 0
KME1 250116Z 23010KT 16/15 A2974 RMK A01 T01630149  RH  092%=      5-min Rain = 0
KME1 250117Z 24008KT 16/15 A2974 RMK A01 T01630150  RH  092%=      5-min Rain = 0
KME1 250118Z 24009KT 16/15 A2974 RMK A01 T01630150  RH  092%=      5-min Rain = 0
KME1 250119Z 24008KT 16/15 A2973 RMK A01 T01620147  RH  091%=      5-min Rain = 0
KME1 250120Z 24008KT 16/15 A2973 RMK A01 T01620147  RH  090%=      5-min Rain = 0
KME1 250121Z 23008KT 16/15 A2973 RMK A01 T01630148  RH  091%=      5-min Rain = 0
KME1 250122Z 23007KT 16/15 A2973 RMK A01 T01630150  RH  092%=      5-min Rain = 0
KME1 250123Z 23007KT 16/15 A2972 RMK A01 T01630148  RH  091%=      5-min Rain = 0
KME1 250124Z 24005KT 16/15 A2972 RMK A01 T01620147  RH  091%=      5-min Rain = 0
KME1 250125Z 23005KT 16/15 A2972 RMK A01 T01620148  RH  091%=      5-min Rain = 0
KME1 250126Z 23006KT 16/15 A2972 RMK A01 T01620149  RH  092%=      5-min Rain = 0
KME1 250127Z 24007KT 16/15 A2972 RMK A01 T01620151  RH  093%=      5-min Rain = 0
KME1 250128Z 24007KT 16/15 A2972 RMK A01 T01610148  RH  092%=      5-min Rain = 0
KME1 250129Z 25009KT 16/15 A2971 RMK A01 T01620147  RH  091%=      5-min Rain = 0
KME1 250130Z 25006KT 16/14 A2971 RMK A01 T01630142  RH  088%=      5-min Rain = 0
KME1 250131Z 25006KT 16/15 A2971 RMK A01 T01640145  RH  088%=      5-min Rain = 0
KME1 250132Z 25005KT 16/14 A2971 RMK A01 T01640144  RH  088%=      5-min Rain = 0
KME1 250133Z 27006KT 17/15 A2971 RMK A01 T01650146  RH  088%=      5-min Rain = 0
KME1 250134Z 27006KT 17/14 A297 RMK A01 T01650142  RH  087%=      5-min Rain = 0
KME1 250135Z 27006KT 17/14 A297 RMK A01 T01650143  RH  087%=      5-min Rain = 0
KME1 250136Z 27007KT 17/14 A297 RMK A01 T01650142  RH  086%=      5-min Rain = 0
KME1 250137Z 27006KT 17/14 A297 RMK A01 T01650142  RH  086%=      5-min Rain = 0
KME1 250138Z 27006KT 17/14 A297 RMK A01 T01650143  RH  087%=      5-min Rain = 0
KME1 250139Z 27006KT 17/15 A297 RMK A01 T01650145  RH  088%=      5-min Rain = 0
KME1 250140Z 28006KT 16/15 A2969 RMK A01 T01640146  RH  089%=      5-min Rain = 0
KME1 250141Z 28004KT 16/15 A2969 RMK A01 T01640147  RH  089%=      5-min Rain = 0
KME1 250142Z 28005KT 16/15 A2969 RMK A01 T01630146  RH  089%=      5-min Rain = 0
KME1 250143Z 27004KT 16/15 A2968 RMK A01 T01630146  RH  089%=      5-min Rain = 0
KME1 250144Z 26004KT 16/15 A2968 RMK A01 T01630147  RH  090%=      5-min Rain = 0
KME1 250145Z 26004KT 16/15 A2968 RMK A01 T01630148  RH  091%=      5-min Rain = 0
KME1 250146Z 25004KT 16/15 A2968 RMK A01 T01630148  RH  091%=      5-min Rain = 0
KME1 250147Z 25003KT 16/15 A2968 RMK A01 T01620149  RH  092%=      5-min Rain = 0
KME1 250148Z 25003KT 16/15 A2968 RMK A01 T01620150  RH  092%=      5-min Rain = 0
KME1 250149Z 25003KT 16/15 A2968 RMK A01 T01620150  RH  093%=      5-min Rain = 0
KME1 250150Z 23003KT 16/15 A2968 RMK A01 T01610150  RH  093%=      5-min Rain = 0
KME1 250151Z 23004KT 16/15 A2968 RMK A01 T01610150  RH  093%=      5-min Rain = 0
KME1 250152Z 23003KT 16/15 A2968 RMK A01 T01610151  RH  094%=      5-min Rain = 0
KME1 250153Z 23003KT 16/15 A2968 RMK A01 T01600152  RH  095%=      5-min Rain = 0
KME1 250154Z 23003KT 16/15 A2967 RMK A01 T01600152  RH  095%=      5-min Rain = 0
KME1 250155Z 24003KT 16/15 A2967 RMK A01 T01590153  RH  096%=      5-min Rain = 0
KME1 250156Z 24004KT 16/16 A2967 RMK A01 T01590155  RH  097%=      5-min Rain = 0
KME1 250157Z 24004KT 16/16 A2967 RMK A01 T01590155  RH  098%=      5-min Rain = 0
KME1 250158Z 24005KT 16/16 A2967 RMK A01 T01590156  RH  098%=      5-min Rain = 0
KME1 250159Z 24006KT 16/16 A2967 RMK A01 T01580157  RH  099%=      5-min Rain = 0
KME1 250200Z 24005KT 16/16 A2967 RMK A01 T01580158  RH  100%=      5-min Rain = 0
KME1 250201Z 24006KT 16/16 A2967 RMK A01 T01580158  RH  100%=      5-min Rain = 0
KME1 250202Z 25005KT 16/16 A2967 RMK A01 T01580158  RH  100%=      5-min Rain = 0
KME1 250203Z 24006KT 16/16 A2967 RMK A01 T01570157  RH  100%=      5-min Rain = 0
KME1 250204Z 25006KT 16/16 A2967 RMK A01 T01570157  RH  100%=      5-min Rain = 0
KME1 250205Z 25006KT 16/16 A2967 RMK A01 T01570157  RH  100%=      5-min Rain = 0
KME1 250206Z 25007KT 16/16 A2967 RMK A01 T01570156  RH  100%=      5-min Rain = 0
KME1 250207Z 25006KT 16/15 A2967 RMK A01 T01570153  RH  098%=      5-min Rain = 0
KME1 250208Z 25006KT 16/15 A2967 RMK A01 T01580153  RH  097%=      5-min Rain = 0
KME1 250209Z 26006KT 16/15 A2967 RMK A01 T01580153  RH  097%=      5-min Rain = 0
KME1 250210Z 27006KT 16/15 A2967 RMK A01 T01590151  RH  095%=      5-min Rain = 0
KME1 250211Z 27005KT 16/15 A2967 RMK A01 T01590148  RH  093%=      5-min Rain = 0
KME1 250212Z 27005KT 16/15 A2967 RMK A01 T01600147  RH  092%=      5-min Rain = 0
KME1 250213Z 27005KT 16/15 A2967 RMK A01 T01610145  RH  090%=      5-min Rain = 0
KME1 250214Z 27004KT 16/15 A2967 RMK A01 T01620146  RH  090%=      5-min Rain = 0
KME1 250215Z 27005KT 16/14 A2967 RMK A01 T01620144  RH  089%=      5-min Rain = 0
KME1 250216Z 28005KT 16/14 A2967 RMK A01 T01630143  RH  088%=      5-min Rain = 0
KME1 250217Z 28005KT 16/14 A2967 RMK A01 T01630144  RH  088%=      5-min Rain = 0
KME1 250218Z 28006KT 16/14 A2967 RMK A01 T01630143  RH  088%=      5-min Rain = 0
KME1 250219Z 28006KT 16/14 A2967 RMK A01 T01630142  RH  087%=      5-min Rain = 0
KME1 250220Z 27006KT 16/14 A2967 RMK A01 T01640142  RH  087%=      5-min Rain = 0
KME1 250221Z 26006KT 16/14 A2967 RMK A01 T01630143  RH  087%=      5-min Rain = 0
KME1 250222Z 26006KT 16/14 A2967 RMK A01 T01640142  RH  087%=      5-min Rain = 0
KME1 250223Z 26006KT 16/14 A2967 RMK A01 T01640144  RH  088%=      5-min Rain = 0
KME1 250224Z 26006KT 16/15 A2967 RMK A01 T01640145  RH  089%=      5-min Rain = 0
KME1 250225Z 25005KT 16/15 A2967 RMK A01 T01640146  RH  089%=      5-min Rain = 0
KME1 250226Z 25005KT 16/15 A2967 RMK A01 T01630146  RH  089%=      5-min Rain = 0
KME1 250227Z 25004KT 16/14 A2967 RMK A01 T01630144  RH  089%=      5-min Rain = 0
KME1 250228Z 25003KT 16/15 A2967 RMK A01 T01630145  RH  089%=      5-min Rain = 0
KME1 250229Z 25002KT 16/15 A2967 RMK A01 T01630145  RH  089%=      5-min Rain = 0
KME1 250230Z 22001KT 16/14 A2967 RMK A01 T01630144  RH  089%=      5-min Rain = 0
KME1 250231Z 17001KT 16/14 A2967 RMK A01 T01620144  RH  089%=      5-min Rain = 0
KME1 250232Z 18002KT 16/15 A2967 RMK A01 T01620145  RH  090%=      5-min Rain = 0
KME1 250233Z 20003KT 16/15 A2967 RMK A01 T01610145  RH  090%=      5-min Rain = 0
KME1 250234Z 19003KT 16/15 A2966 RMK A01 T01610146  RH  091%=      5-min Rain = 0
KME1 250235Z 16003KT 16/15 A2966 RMK A01 T01600147  RH  092%=      5-min Rain = 0
KME1 250236Z 15002KT 16/15 A2966 RMK A01 T01600149  RH  093%=      5-min Rain = 0
KME1 250237Z 16002KT 16/15 A2965 RMK A01 T01590151  RH  095%=      5-min Rain = 0
KME1 250238Z 16002KT 16/15 A2965 RMK A01 T01590152  RH  096%=      5-min Rain = 0
KME1 250239Z 17003KT 16/15 A2965 RMK A01 T01580153  RH  097%=      5-min Rain = 0
KME1 250240Z 16002KT 16/15 A2964 RMK A01 T01570154  RH  098%=      5-min Rain = 0
KME1 250241Z 15002KT 16/16 A2964 RMK A01 T01570155  RH  099%=      5-min Rain = 0
KME1 250242Z 15002KT 16/16 A2964 RMK A01 T01560155  RH  099%=      5-min Rain = 0
KME1 250243Z 15002KT 16/16 A2964 RMK A01 T01560155  RH  099%=      5-min Rain = 0
KME1 250244Z 14002KT 16/16 A2963 RMK A01 T01560155  RH  100%=      5-min Rain = 0
KME1 250245Z 15002KT 16/15 A2963 RMK A01 T01550154  RH  099%=      5-min Rain = 0
KME1 250246Z 14002KT 16/15 A2963 RMK A01 T01550154  RH  099%=      5-min Rain = 0
KME1 250247Z 13002KT 16/15 A2963 RMK A01 T01550153  RH  099%=      5-min Rain = 0
KME1 250248Z 13001KT 16/15 A2963 RMK A01 T01550154  RH  099%=      5-min Rain = 0
KME1 250249Z 13001KT 16/16 A2963 RMK A01 T01550155  RH  100%=      5-min Rain = 0
KME1 250250Z 13001KT 16/16 A2963 RMK A01 T01550155  RH  100%=      5-min Rain = 0
KME1 250251Z 13000KT 16/16 A2963 RMK A01 T01550155  RH  100%=      5-min Rain = 0
KME1 250252Z 00000KT 16/15 A2963 RMK A01 T01550153  RH  099%=      5-min Rain = 0
KME1 250253Z 22001KT 16/16 A2963 RMK A01 T01550155  RH  100%=      5-min Rain = 0
KME1 250254Z 23002KT 16/16 A2963 RMK A01 T01560156  RH  100%=      5-min Rain = 0
KME1 250255Z 22002KT 16/16 A2963 RMK A01 T01560157  RH  100%=      5-min Rain = 0
KME1 250256Z 21002KT 16/16 A2963 RMK A01 T01570157  RH  100%=      5-min Rain = 0
KME1 250257Z 21002KT 16/16 A2964 RMK A01 T01570157  RH  100%=      5-min Rain = 0
KME1 250258Z 20001KT 16/16 A2964 RMK A01 T01570157  RH  100%=      5-min Rain = 0
KME1 250259Z 18001KT 16/16 A2964 RMK A01 T01570157  RH  100%=      5-min Rain = 0
KME1 250300Z 14001KT 16/16 A2964 RMK A01 T01570157  RH  100%=      5-min Rain = 0
KME1 250301Z 13001KT 16/16 A2964 RMK A01 T01570157  RH  100%=      5-min Rain = 0
KME1 250302Z 12002KT 16/16 A2963 RMK A01 T01560156  RH  100%=      5-min Rain = 0
KME1 250303Z 12002KT 16/16 A2963 RMK A01 T01560156  RH  100%=      5-min Rain = 0
KME1 250304Z 12003KT 16/16 A2963 RMK A01 T01560156  RH  100%=      5-min Rain = 0
KME1 250305Z 11003KT 16/16 A2963 RMK A01 T01550155  RH  100%=      5-min Rain = 0
KME1 250306Z 11004KT 15/15 A2963 RMK A01 T01540154  RH  100%=      5-min Rain = 0
KME1 250307Z 12004KT 15/15 A2963 RMK A01 T01530153  RH  100%=      5-min Rain = 0
KME1 250308Z 12005KT 15/15 A2963 RMK A01 T01530153  RH  100%=      5-min Rain = 0
KME1 250309Z 12005KT 15/15 A2963 RMK A01 T01530153  RH  100%=      5-min Rain = 0
KME1 250310Z 10005KT 15/15 A2964 RMK A01 T01530153  RH  100%=      5-min Rain = 0
KME1 250311Z 08004KT 15/15 A2964 RMK A01 T01520153  RH  100%=      5-min Rain = 0
KME1 250312Z 08004KT 15/15 A2964 RMK A01 T01530153  RH  100%=      5-min Rain = 0
KME1 250313Z 09003KT 15/15 A2965 RMK A01 T01530153  RH  100%=      5-min Rain = 0
KME1 250314Z 10003KT 15/15 A2965 RMK A01 T01530154  RH  100%=      5-min Rain = 0
KME1 250315Z 14002KT 15/15 A2965 RMK A01 T01540154  RH  100%=      5-min Rain = 0
KME1 250316Z 17003KT 15/15 A2966 RMK A01 T01540154  RH  100%=      5-min Rain = 0
KME1 250317Z 19004KT 16/16 A2966 RMK A01 T01550155  RH  100%=      5-min Rain = 0
KME1 250318Z 21005KT 16/16 A2966 RMK A01 T01550155  RH  100%=      5-min Rain = 0
KME1 250319Z 22005KT 16/16 A2967 RMK A01 T01550155  RH  100%=      5-min Rain = 0
KME1 250320Z 22005KT 16/16 A2967 RMK A01 T01560156  RH  100%=      5-min Rain = 0
KME1 250321Z 23005KT 16/16 A2967 RMK A01 T01560156  RH  100%=      5-min Rain = 0
KME1 250322Z 24004KT 16/16 A2968 RMK A01 T01560156  RH  100%=      5-min Rain = 0
KME1 250323Z 22003KT 16/16 A2968 RMK A01 T01560156  RH  100%=      5-min Rain = 0
KME1 250324Z 21002KT 16/16 A2968 RMK A01 T01560156  RH  100%=      5-min Rain = 0
KME1 250325Z 17002KT 16/16 A2968 RMK A01 T01560156  RH  100%=      5-min Rain = 0
KME1 250326Z 15002KT 16/16 A2968 RMK A01 T01560156  RH  100%=      5-min Rain = 0
KME1 250327Z 13002KT 16/16 A2968 RMK A01 T01560156  RH  100%=      5-min Rain = 0
KME1 250328Z 12003KT 16/16 A2969 RMK A01 T01560156  RH  100%=      5-min Rain = 0
KME1 250329Z 12004KT 16/16 A2969 RMK A01 T01570157  RH  100%=      5-min Rain = 0
KME1 250330Z 12005KT 16/16 A2969 RMK A01 T01570157  RH  100%=      5-min Rain = 0
KME1 250331Z 13005KT 16/16 A297 RMK A01 T01580158  RH  100%=      5-min Rain = 0
KME1 250332Z 13006KT 16/16 A297 RMK A01 T01570158  RH  100%=      5-min Rain = 0
KME1 250333Z 13005KT 16/16 A297 RMK A01 T01580158  RH  100%=      5-min Rain = 0
KME1 250334Z 13004KT 16/16 A297 RMK A01 T01580158  RH  100%=      5-min Rain = 0
KME1 250335Z 11004KT 16/16 A2971 RMK A01 T01580158  RH  100%=      5-min Rain = 0
KME1 250336Z 10002KT 16/16 A2971 RMK A01 T01590159  RH  100%=      5-min Rain = 0
KME1 250337Z 09002KT 16/16 A2971 RMK A01 T01590159  RH  100%=      5-min Rain = 0
KME1 250338Z 10002KT 16/16 A2971 RMK A01 T01590159  RH  100%=      5-min Rain = 0
KME1 250339Z 12001KT 16/16 A2971 RMK A01 T01600160  RH  100%=      5-min Rain = 0
KME1 250340Z 14001KT 16/16 A2971 RMK A01 T01600160  RH  100%=      5-min Rain = 0
KME1 250341Z 17001KT 16/16 A2971 RMK A01 T01600160  RH  100%=      5-min Rain = 0
KME1 250342Z 19001KT 16/16 A2972 RMK A01 T01610160  RH  099%=      5-min Rain = 0
KME1 250343Z 21002KT 16/16 A2972 RMK A01 T01610161  RH  100%=      5-min Rain = 0
KME1 250344Z 22003KT 16/16 A2972 RMK A01 T01620162  RH  100%=      5-min Rain = 0
KME1 250345Z 23003KT 16/16 A2973 RMK A01 T01620163  RH  100%=      5-min Rain = 0
KME1 250346Z 23003KT 16/16 A2973 RMK A01 T01630163  RH  100%=      5-min Rain = 0
KME1 250347Z 23004KT 16/16 A2973 RMK A01 T01630163  RH  100%=      5-min Rain = 0
KME1 250348Z 23004KT 16/16 A2973 RMK A01 T01630163  RH  100%=      5-min Rain = 0
KME1 250349Z 22003KT 16/16 A2973 RMK A01 T01620163  RH  100%=      5-min Rain = 0
KME1 250350Z 22003KT 16/16 A2974 RMK A01 T01620162  RH  100%=      5-min Rain = 0
KME1 250351Z 21002KT 16/16 A2974 RMK A01 T01610161  RH  100%=      5-min Rain = 0
KME1 250352Z 22002KT 16/16 A2974 RMK A01 T01610161  RH  100%=      5-min Rain = 0
KME1 250353Z 20002KT 16/16 A2974 RMK A01 T01610161  RH  100%=      5-min Rain = 0
KME1 250354Z 22001KT 16/16 A2974 RMK A01 T01610161  RH  100%=      5-min Rain = 0
KME1 250355Z 12001KT 16/16 A2975 RMK A01 T01610161  RH  100%=      5-min Rain = 0
KME1 250356Z 09001KT 16/16 A2975 RMK A01 T01610161  RH  100%=      5-min Rain = 0
KME1 250357Z 07001KT 16/16 A2975 RMK A01 T01620160  RH  099%=      5-min Rain = 0
KME1 250358Z 05001KT 16/16 A2975 RMK A01 T01630162  RH  099%=      5-min Rain = 0
KME1 250359Z 05002KT 16/16 A2976 RMK A01 T01630162  RH  099%=      5-min Rain = 0
KME1 250400Z 05003KT 16/16 A2976 RMK A01 T01640164  RH  100%=      5-min Rain = 0
KME1 250401Z 05004KT 16/16 A2976 RMK A01 T01640162  RH  099%=      5-min Rain = 0
KME1 250402Z 05004KT 17/17 A2976 RMK A01 T01650165  RH  100%=      5-min Rain = 0
KME1 250403Z 05005KT 17/16 A2977 RMK A01 T01650163  RH  099%=      5-min Rain = 0
KME1 250404Z 05005KT 17/16 A2977 RMK A01 T01650160  RH  096%=      5-min Rain = 0
KME1 250405Z 05007KT 17/16 A2977 RMK A01 T01650156  RH  094%=      5-min Rain = 0
KME1 250406Z 04006KT 17/15 A2977 RMK A01 T01660152  RH  092%=      5-min Rain = 0
KME1 250407Z 05006KT 17/15 A2977 RMK A01 T01660151  RH  091%=      5-min Rain = 0
KME1 250408Z 05006KT 17/15 A2977 RMK A01 T01670152  RH  091%=      5-min Rain = 0
KME1 250409Z 05006KT 17/15 A2977 RMK A01 T01670152  RH  091%=      5-min Rain = 0
KME1 250410Z 05007KT 17/15 A2977 RMK A01 T01670152  RH  091%=      5-min Rain = 0
KME1 250411Z 05006KT 17/15 A2977 RMK A01 T01670152  RH  091%=      5-min Rain = 0
KME1 250412Z 05006KT 17/15 A2978 RMK A01 T01670152  RH  091%=      5-min Rain = 0
KME1 250413Z 05007KT 17/15 A2978 RMK A01 T01660153  RH  092%=      5-min Rain = 0
KME1 250414Z 05009KT 17/15 A2978 RMK A01 T01660153  RH  092%=      5-min Rain = 0
KME1 250415Z 04006KT 17/15 A2978 RMK A01 T01660153  RH  092%=      5-min Rain = 0
KME1 250416Z 05007KT 17/16 A2978 RMK A01 T01660155  RH  093%=      5-min Rain = 0
KME1 250417Z 05008KT 17/15 A2978 RMK A01 T01660154  RH  093%=      5-min Rain = 0
KME1 250418Z 05008KT 17/15 A2979 RMK A01 T01650154  RH  093%=      5-min Rain = 0
KME1 250419Z 06006KT 17/16 A2979 RMK A01 T01650156  RH  094%=      5-min Rain = 0
KME1 250420Z 06005KT 17/16 A2979 RMK A01 T01650157  RH  095%=      5-min Rain = 0
KME1 250421Z 05006KT 17/16 A2979 RMK A01 T01650157  RH  095%=      5-min Rain = 0
KME1 250422Z 05006KT 17/16 A2979 RMK A01 T01650158  RH  096%=      5-min Rain = 0
KME1 250423Z 05008KT 17/16 A298 RMK A01 T01650159  RH  096%=      5-min Rain = 0
KME1 250424Z 05008KT 17/16 A298 RMK A01 T01650158  RH  096%=      5-min Rain = 0
KME1 250425Z 05008KT 17/16 A298 RMK A01 T01650159  RH  096%=      5-min Rain = 0
KME1 250426Z 05007G12KT 17/16 A298 RMK A01 T01650160  RH  097%=      5-min Rain = 0
KME1 250427Z 07008KT 17/16 A298 RMK A01 T01650160  RH  097%=      5-min Rain = 0
KME1 250428Z 07006KT 17/16 A2981 RMK A01 T01650160  RH  097%=      5-min Rain = 0
KME1 250429Z 07007KT 17/16 A2981 RMK A01 T01650161  RH  097%=      5-min Rain = 0
KME1 250430Z 08008KT 17/16 A2981 RMK A01 T01660161  RH  097%=      5-min Rain = 0
KME1 250431Z 08008KT 17/16 A2981 RMK A01 T01660160  RH  097%=      5-min Rain = 0
KME1 250432Z 08009KT 17/16 A2982 RMK A01 T01660161  RH  096%=      5-min Rain = 0
KME1 250433Z 07011G17KT 17/16 A2982 RMK A01 T01670160  RH  096%=      5-min Rain = 0
KME1 250434Z 07010KT 17/16 A2983 RMK A01 T01670160  RH  096%=      5-min Rain = 0
KME1 250435Z 07014KT 17/16 A2983 RMK A01 T01670160  RH  095%=      5-min Rain = 0
KME1 250436Z 07011KT 17/16 A2983 RMK A01 T01670160  RH  096%=      5-min Rain = 0
KME1 250437Z 08011KT 17/16 A2983 RMK A01 T01670161  RH  096%=      5-min Rain = 0
KME1 250438Z 08010KT 17/16 A2983 RMK A01 T01670161  RH  096%=      5-min Rain = 0
KME1 250439Z 08011KT 17/16 A2982 RMK A01 T01670161  RH  096%=      5-min Rain = 0
KME1 250440Z 09011KT 17/16 A2982 RMK A01 T01670161  RH  097%=      5-min Rain = 0
KME1 250441Z 09012KT 17/16 A2981 RMK A01 T01660161  RH  097%=      5-min Rain = 0
KME1 250442Z 08012KT 17/16 A2981 RMK A01 T01660161  RH  097%=      5-min Rain = 0
KME1 250443Z 08010KT 17/16 A2982 RMK A01 T01660161  RH  097%=      5-min Rain = 0
KME1 250444Z 06011G16KT 17/16 A2982 RMK A01 T01660162  RH  097%=      5-min Rain = 0
KME1 250445Z 07010KT 17/16 A2982 RMK A01 T01660163  RH  098%=      5-min Rain = 0
KME1 250446Z 06009KT 17/16 A2982 RMK A01 T01660164  RH  099%=      5-min Rain = 0
KME1 250447Z 07010KT 17/17 A2982 RMK A01 T01660165  RH  099%=      5-min Rain = 0
KME1 250448Z 07014KT 17/17 A2982 RMK A01 T01650165  RH  099%=      5-min Rain = 0
KME1 250449Z 07011KT 17/16 A2981 RMK A01 T01660163  RH  098%=      5-min Rain = 0
KME1 250450Z 07014G20KT 17/16 A2981 RMK A01 T01660164  RH  098%=      5-min Rain = 0
KME1 250451Z 07011KT 17/16 A2981 RMK A01 T01660164  RH  098%=      5-min Rain = 0
KME1 250452Z 07015KT 17/16 A2982 RMK A01 T01660164  RH  099%=      5-min Rain = 0
KME1 250453Z 06011KT 17/16 A2982 RMK A01 T01670164  RH  098%=      5-min Rain = 0
KME1 250454Z 05012G17KT 17/17 A2982 RMK A01 T01670165  RH  099%=      5-min Rain = 0
KME1 250455Z 06011KT 17/16 A2982 RMK A01 T01670164  RH  098%=      5-min Rain = 0
KME1 250456Z 07009KT 17/16 A2982 RMK A01 T01670164  RH  098%=      5-min Rain = 0
KME1 250457Z 06012KT 17/16 A2982 RMK A01 T01670164  RH  098%=      5-min Rain = 0
KME1 250458Z 06012KT 17/16 A2982 RMK A01 T01670163  RH  098%=      5-min Rain = 0
KME1 250459Z 06011KT 17/16 A2982 RMK A01 T01670163  RH  098%=      5-min Rain = 0

Page generated in 0.3699 seconds.